<?xml version="1.0" encoding="UTF-8" standalone="no" ?>
<gpx xmlns="http://www.topografix.com/GPX/1/1" xmlns:xsi="http://www.w3.org/2001/XMLSchema-instance" xsi:schemaLocation="http://www.topografix.com/GPX/1/1 http://www.topografix.com/GPX/1/1/gpx.xsd" version="1.1" creator="VisuGPX - https://www.visugpx.com">
  <metadata>
    <name>Houdan</name>
    <desc><![CDATA[Départ à la gare SNCF de Tacoigniéres-Richebourg, arrivée à la gare SNCF de Houdan.]]></desc>
  </metadata>
  <trk>
    <name><![CDATA[Tracé]]></name>
    <trkseg>
      <trkpt lat="48.82977" lon="1.6702">
        <ele>132.8</ele>
        <time>2013-12-20T08:49:32Z</time>
      </trkpt>
      <trkpt lat="48.82953" lon="1.66938">
        <ele>132.32</ele>
        <time>2013-12-20T08:49:41Z</time>
      </trkpt>
      <trkpt lat="48.82946" lon="1.66921">
        <ele>132.8</ele>
        <time>2013-12-20T08:49:49Z</time>
      </trkpt>
      <trkpt lat="48.82944" lon="1.6692">
        <ele>135.68</ele>
        <time>2013-12-20T08:50:04Z</time>
      </trkpt>
      <trkpt lat="48.82945" lon="1.66921">
        <ele>136.64</ele>
        <time>2013-12-20T08:50:18Z</time>
      </trkpt>
      <trkpt lat="48.82948" lon="1.66929">
        <ele>136.16</ele>
        <time>2013-12-20T08:50:26Z</time>
      </trkpt>
      <trkpt lat="48.82951" lon="1.6694">
        <ele>135.68</ele>
        <time>2013-12-20T08:50:33Z</time>
      </trkpt>
      <trkpt lat="48.82954" lon="1.66947">
        <ele>135.2</ele>
        <time>2013-12-20T08:50:38Z</time>
      </trkpt>
      <trkpt lat="48.82954" lon="1.66951">
        <ele>135.68</ele>
        <time>2013-12-20T08:50:44Z</time>
      </trkpt>
      <trkpt lat="48.82962" lon="1.6698">
        <ele>133.28</ele>
        <time>2013-12-20T08:51:01Z</time>
      </trkpt>
      <trkpt lat="48.8297" lon="1.67006">
        <ele>132.32</ele>
        <time>2013-12-20T08:51:16Z</time>
      </trkpt>
      <trkpt lat="48.8298" lon="1.67035">
        <ele>134.24</ele>
        <time>2013-12-20T08:51:29Z</time>
      </trkpt>
      <trkpt lat="48.82987" lon="1.67033">
        <ele>133.76</ele>
        <time>2013-12-20T08:51:37Z</time>
      </trkpt>
      <trkpt lat="48.82989" lon="1.67033">
        <ele>133.76</ele>
        <time>2013-12-20T08:51:39Z</time>
      </trkpt>
      <trkpt lat="48.83009" lon="1.67025">
        <ele>135.2</ele>
        <time>2013-12-20T08:51:54Z</time>
      </trkpt>
      <trkpt lat="48.83013" lon="1.67022">
        <ele>136.16</ele>
        <time>2013-12-20T08:51:57Z</time>
      </trkpt>
      <trkpt lat="48.83016" lon="1.6699">
        <ele>139.05</ele>
        <time>2013-12-20T08:52:08Z</time>
      </trkpt>
      <trkpt lat="48.83012" lon="1.66976">
        <ele>141.45</ele>
        <time>2013-12-20T08:52:15Z</time>
      </trkpt>
      <trkpt lat="48.83007" lon="1.66959">
        <ele>139.05</ele>
        <time>2013-12-20T08:52:32Z</time>
      </trkpt>
      <trkpt lat="48.83" lon="1.6694">
        <ele>137.13</ele>
        <time>2013-12-20T08:52:47Z</time>
      </trkpt>
      <trkpt lat="48.82984" lon="1.66909">
        <ele>139.05</ele>
        <time>2013-12-20T08:53:01Z</time>
      </trkpt>
      <trkpt lat="48.82973" lon="1.66883">
        <ele>139.05</ele>
        <time>2013-12-20T08:53:15Z</time>
      </trkpt>
      <trkpt lat="48.82971" lon="1.66875">
        <ele>139.53</ele>
        <time>2013-12-20T08:53:21Z</time>
      </trkpt>
      <trkpt lat="48.82976" lon="1.66868">
        <ele>140.49</ele>
        <time>2013-12-20T08:53:25Z</time>
      </trkpt>
      <trkpt lat="48.8298" lon="1.6686">
        <ele>141.45</ele>
        <time>2013-12-20T08:53:30Z</time>
      </trkpt>
      <trkpt lat="48.82981" lon="1.66857">
        <ele>141.45</ele>
        <time>2013-12-20T08:53:33Z</time>
      </trkpt>
      <trkpt lat="48.82974" lon="1.66832">
        <ele>140.49</ele>
        <time>2013-12-20T08:53:47Z</time>
      </trkpt>
      <trkpt lat="48.82972" lon="1.66821">
        <ele>141.45</ele>
        <time>2013-12-20T08:53:58Z</time>
      </trkpt>
      <trkpt lat="48.82974" lon="1.6682">
        <ele>140.97</ele>
        <time>2013-12-20T08:54:18Z</time>
      </trkpt>
      <trkpt lat="48.82974" lon="1.66813">
        <ele>140.49</ele>
        <time>2013-12-20T08:54:35Z</time>
      </trkpt>
      <trkpt lat="48.82974" lon="1.66807">
        <ele>140.01</ele>
        <time>2013-12-20T08:54:40Z</time>
      </trkpt>
      <trkpt lat="48.82977" lon="1.66781">
        <ele>138.57</ele>
        <time>2013-12-20T08:54:52Z</time>
      </trkpt>
      <trkpt lat="48.82979" lon="1.66767">
        <ele>136.64</ele>
        <time>2013-12-20T08:55:05Z</time>
      </trkpt>
      <trkpt lat="48.82984" lon="1.66736">
        <ele>132.8</ele>
        <time>2013-12-20T08:55:19Z</time>
      </trkpt>
      <trkpt lat="48.82985" lon="1.66723">
        <ele>131.84</ele>
        <time>2013-12-20T08:55:31Z</time>
      </trkpt>
      <trkpt lat="48.8299" lon="1.66699">
        <ele>130.88</ele>
        <time>2013-12-20T08:55:47Z</time>
      </trkpt>
      <trkpt lat="48.82996" lon="1.66692">
        <ele>130.4</ele>
        <time>2013-12-20T08:56:00Z</time>
      </trkpt>
      <trkpt lat="48.82998" lon="1.66693">
        <ele>127.99</ele>
        <time>2013-12-20T08:56:17Z</time>
      </trkpt>
      <trkpt lat="48.83001" lon="1.6669">
        <ele>129.92</ele>
        <time>2013-12-20T08:56:29Z</time>
      </trkpt>
      <trkpt lat="48.83003" lon="1.6669">
        <ele>130.4</ele>
        <time>2013-12-20T08:56:41Z</time>
      </trkpt>
      <trkpt lat="48.83003" lon="1.6669">
        <ele>130.88</ele>
        <time>2013-12-20T08:56:46Z</time>
      </trkpt>
      <trkpt lat="48.83011" lon="1.66691">
        <ele>129.92</ele>
        <time>2013-12-20T08:57:01Z</time>
      </trkpt>
      <trkpt lat="48.83029" lon="1.66688">
        <ele>128.47</ele>
        <time>2013-12-20T08:57:17Z</time>
      </trkpt>
      <trkpt lat="48.83054" lon="1.66668">
        <ele>128.47</ele>
        <time>2013-12-20T08:57:38Z</time>
      </trkpt>
      <trkpt lat="48.83073" lon="1.66658">
        <ele>127.51</ele>
        <time>2013-12-20T08:57:54Z</time>
      </trkpt>
      <trkpt lat="48.83091" lon="1.66648">
        <ele>127.99</ele>
        <time>2013-12-20T08:58:11Z</time>
      </trkpt>
      <trkpt lat="48.83114" lon="1.66635">
        <ele>127.03</ele>
        <time>2013-12-20T08:58:31Z</time>
      </trkpt>
      <trkpt lat="48.83114" lon="1.66634">
        <ele>127.03</ele>
        <time>2013-12-20T08:58:32Z</time>
      </trkpt>
      <trkpt lat="48.83118" lon="1.66628">
        <ele>126.55</ele>
        <time>2013-12-20T08:58:37Z</time>
      </trkpt>
      <trkpt lat="48.83118" lon="1.66623">
        <ele>126.55</ele>
        <time>2013-12-20T08:58:40Z</time>
      </trkpt>
      <trkpt lat="48.83104" lon="1.66588">
        <ele>126.55</ele>
        <time>2013-12-20T08:59:02Z</time>
      </trkpt>
      <trkpt lat="48.83085" lon="1.66547">
        <ele>128.95</ele>
        <time>2013-12-20T08:59:28Z</time>
      </trkpt>
      <trkpt lat="48.83072" lon="1.66513">
        <ele>129.43</ele>
        <time>2013-12-20T08:59:49Z</time>
      </trkpt>
      <trkpt lat="48.83061" lon="1.66481">
        <ele>129.92</ele>
        <time>2013-12-20T09:00:07Z</time>
      </trkpt>
      <trkpt lat="48.8305" lon="1.66446">
        <ele>130.88</ele>
        <time>2013-12-20T09:00:27Z</time>
      </trkpt>
      <trkpt lat="48.83041" lon="1.66412">
        <ele>131.84</ele>
        <time>2013-12-20T09:00:47Z</time>
      </trkpt>
      <trkpt lat="48.83037" lon="1.66401">
        <ele>131.36</ele>
        <time>2013-12-20T09:00:56Z</time>
      </trkpt>
      <trkpt lat="48.83036" lon="1.66391">
        <ele>130.4</ele>
        <time>2013-12-20T09:01:02Z</time>
      </trkpt>
      <trkpt lat="48.8305" lon="1.66395">
        <ele>131.36</ele>
        <time>2013-12-20T09:01:16Z</time>
      </trkpt>
      <trkpt lat="48.83075" lon="1.66407">
        <ele>130.88</ele>
        <time>2013-12-20T09:01:37Z</time>
      </trkpt>
      <trkpt lat="48.83099" lon="1.66412">
        <ele>130.4</ele>
        <time>2013-12-20T09:01:56Z</time>
      </trkpt>
      <trkpt lat="48.83122" lon="1.66412">
        <ele>129.43</ele>
        <time>2013-12-20T09:02:15Z</time>
      </trkpt>
      <trkpt lat="48.83146" lon="1.66415">
        <ele>128.47</ele>
        <time>2013-12-20T09:02:35Z</time>
      </trkpt>
      <trkpt lat="48.83175" lon="1.66418">
        <ele>129.43</ele>
        <time>2013-12-20T09:02:57Z</time>
      </trkpt>
      <trkpt lat="48.83203" lon="1.66419">
        <ele>126.55</ele>
        <time>2013-12-20T09:03:19Z</time>
      </trkpt>
      <trkpt lat="48.83225" lon="1.66421">
        <ele>127.99</ele>
        <time>2013-12-20T09:03:37Z</time>
      </trkpt>
      <trkpt lat="48.83246" lon="1.66424">
        <ele>128.47</ele>
        <time>2013-12-20T09:03:54Z</time>
      </trkpt>
      <trkpt lat="48.83269" lon="1.66425">
        <ele>126.07</ele>
        <time>2013-12-20T09:04:13Z</time>
      </trkpt>
      <trkpt lat="48.83289" lon="1.66427">
        <ele>123.67</ele>
        <time>2013-12-20T09:04:30Z</time>
      </trkpt>
      <trkpt lat="48.83308" lon="1.66428">
        <ele>123.19</ele>
        <time>2013-12-20T09:04:42Z</time>
      </trkpt>
      <trkpt lat="48.83325" lon="1.66435">
        <ele>121.74</ele>
        <time>2013-12-20T09:04:57Z</time>
      </trkpt>
      <trkpt lat="48.83339" lon="1.66438">
        <ele>121.74</ele>
        <time>2013-12-20T09:05:12Z</time>
      </trkpt>
      <trkpt lat="48.83345" lon="1.66417">
        <ele>123.19</ele>
        <time>2013-12-20T09:05:27Z</time>
      </trkpt>
      <trkpt lat="48.83345" lon="1.66416">
        <ele>123.19</ele>
        <time>2013-12-20T09:05:28Z</time>
      </trkpt>
      <trkpt lat="48.83347" lon="1.66406">
        <ele>123.67</ele>
        <time>2013-12-20T09:05:32Z</time>
      </trkpt>
      <trkpt lat="48.83353" lon="1.66375">
        <ele>124.15</ele>
        <time>2013-12-20T09:05:45Z</time>
      </trkpt>
      <trkpt lat="48.83363" lon="1.66347">
        <ele>126.55</ele>
        <time>2013-12-20T09:06:03Z</time>
      </trkpt>
      <trkpt lat="48.83363" lon="1.66345">
        <ele>126.55</ele>
        <time>2013-12-20T09:06:04Z</time>
      </trkpt>
      <trkpt lat="48.83371" lon="1.66319">
        <ele>127.03</ele>
        <time>2013-12-20T09:06:16Z</time>
      </trkpt>
      <trkpt lat="48.83372" lon="1.66303">
        <ele>127.51</ele>
        <time>2013-12-20T09:06:28Z</time>
      </trkpt>
      <trkpt lat="48.83384" lon="1.6626">
        <ele>128.95</ele>
        <time>2013-12-20T09:06:46Z</time>
      </trkpt>
      <trkpt lat="48.83385" lon="1.66241">
        <ele>128.47</ele>
        <time>2013-12-20T09:07:00Z</time>
      </trkpt>
      <trkpt lat="48.83395" lon="1.66207">
        <ele>127.99</ele>
        <time>2013-12-20T09:07:14Z</time>
      </trkpt>
      <trkpt lat="48.83399" lon="1.66184">
        <ele>127.03</ele>
        <time>2013-12-20T09:07:31Z</time>
      </trkpt>
      <trkpt lat="48.83406" lon="1.66157">
        <ele>128.47</ele>
        <time>2013-12-20T09:07:44Z</time>
      </trkpt>
      <trkpt lat="48.83406" lon="1.66155">
        <ele>128.47</ele>
        <time>2013-12-20T09:07:45Z</time>
      </trkpt>
      <trkpt lat="48.83417" lon="1.66129">
        <ele>131.36</ele>
        <time>2013-12-20T09:07:58Z</time>
      </trkpt>
      <trkpt lat="48.83424" lon="1.66101">
        <ele>129.92</ele>
        <time>2013-12-20T09:08:19Z</time>
      </trkpt>
      <trkpt lat="48.83437" lon="1.66068">
        <ele>129.43</ele>
        <time>2013-12-20T09:08:35Z</time>
      </trkpt>
      <trkpt lat="48.83447" lon="1.66043">
        <ele>129.92</ele>
        <time>2013-12-20T09:08:51Z</time>
      </trkpt>
      <trkpt lat="48.8346" lon="1.6601">
        <ele>129.43</ele>
        <time>2013-12-20T09:09:09Z</time>
      </trkpt>
      <trkpt lat="48.83472" lon="1.65992">
        <ele>131.36</ele>
        <time>2013-12-20T09:09:24Z</time>
      </trkpt>
      <trkpt lat="48.83485" lon="1.6597">
        <ele>132.8</ele>
        <time>2013-12-20T09:09:38Z</time>
      </trkpt>
      <trkpt lat="48.8349" lon="1.65949">
        <ele>128.47</ele>
        <time>2013-12-20T09:09:52Z</time>
      </trkpt>
      <trkpt lat="48.8351" lon="1.65918">
        <ele>129.92</ele>
        <time>2013-12-20T09:10:10Z</time>
      </trkpt>
      <trkpt lat="48.83511" lon="1.65917">
        <ele>130.4</ele>
        <time>2013-12-20T09:10:11Z</time>
      </trkpt>
      <trkpt lat="48.83513" lon="1.65915">
        <ele>129.92</ele>
        <time>2013-12-20T09:10:18Z</time>
      </trkpt>
      <trkpt lat="48.83516" lon="1.65908">
        <ele>129.92</ele>
        <time>2013-12-20T09:10:23Z</time>
      </trkpt>
      <trkpt lat="48.83526" lon="1.65886">
        <ele>127.99</ele>
        <time>2013-12-20T09:10:39Z</time>
      </trkpt>
      <trkpt lat="48.83532" lon="1.65873">
        <ele>126.55</ele>
        <time>2013-12-20T09:10:53Z</time>
      </trkpt>
      <trkpt lat="48.83542" lon="1.65857">
        <ele>127.99</ele>
        <time>2013-12-20T09:11:03Z</time>
      </trkpt>
      <trkpt lat="48.83558" lon="1.65833">
        <ele>127.99</ele>
        <time>2013-12-20T09:11:18Z</time>
      </trkpt>
      <trkpt lat="48.83567" lon="1.65817">
        <ele>129.92</ele>
        <time>2013-12-20T09:11:29Z</time>
      </trkpt>
      <trkpt lat="48.8358" lon="1.65801">
        <ele>132.8</ele>
        <time>2013-12-20T09:11:45Z</time>
      </trkpt>
      <trkpt lat="48.83588" lon="1.65781">
        <ele>130.88</ele>
        <time>2013-12-20T09:12:01Z</time>
      </trkpt>
      <trkpt lat="48.83596" lon="1.65764">
        <ele>130.4</ele>
        <time>2013-12-20T09:12:11Z</time>
      </trkpt>
      <trkpt lat="48.83608" lon="1.65741">
        <ele>131.84</ele>
        <time>2013-12-20T09:12:25Z</time>
      </trkpt>
      <trkpt lat="48.83614" lon="1.6573">
        <ele>131.84</ele>
        <time>2013-12-20T09:12:32Z</time>
      </trkpt>
      <trkpt lat="48.83613" lon="1.65716">
        <ele>131.36</ele>
        <time>2013-12-20T09:12:38Z</time>
      </trkpt>
      <trkpt lat="48.83611" lon="1.6571">
        <ele>131.36</ele>
        <time>2013-12-20T09:12:50Z</time>
      </trkpt>
      <trkpt lat="48.83614" lon="1.65703">
        <ele>130.88</ele>
        <time>2013-12-20T09:12:54Z</time>
      </trkpt>
      <trkpt lat="48.83619" lon="1.65678">
        <ele>128.47</ele>
        <time>2013-12-20T09:13:08Z</time>
      </trkpt>
      <trkpt lat="48.83623" lon="1.6565">
        <ele>128.95</ele>
        <time>2013-12-20T09:13:25Z</time>
      </trkpt>
      <trkpt lat="48.83626" lon="1.65616">
        <ele>130.88</ele>
        <time>2013-12-20T09:13:43Z</time>
      </trkpt>
      <trkpt lat="48.83629" lon="1.65587">
        <ele>130.88</ele>
        <time>2013-12-20T09:13:58Z</time>
      </trkpt>
      <trkpt lat="48.8363" lon="1.65574">
        <ele>131.84</ele>
        <time>2013-12-20T09:14:06Z</time>
      </trkpt>
      <trkpt lat="48.83631" lon="1.65545">
        <ele>130.88</ele>
        <time>2013-12-20T09:14:20Z</time>
      </trkpt>
      <trkpt lat="48.83637" lon="1.65511">
        <ele>130.4</ele>
        <time>2013-12-20T09:14:34Z</time>
      </trkpt>
      <trkpt lat="48.83642" lon="1.65481">
        <ele>132.32</ele>
        <time>2013-12-20T09:14:51Z</time>
      </trkpt>
      <trkpt lat="48.83641" lon="1.65456">
        <ele>132.32</ele>
        <time>2013-12-20T09:15:08Z</time>
      </trkpt>
      <trkpt lat="48.83643" lon="1.65415">
        <ele>132.32</ele>
        <time>2013-12-20T09:15:25Z</time>
      </trkpt>
      <trkpt lat="48.83645" lon="1.65387">
        <ele>133.28</ele>
        <time>2013-12-20T09:15:41Z</time>
      </trkpt>
      <trkpt lat="48.83644" lon="1.65362">
        <ele>133.28</ele>
        <time>2013-12-20T09:15:58Z</time>
      </trkpt>
      <trkpt lat="48.83642" lon="1.65326">
        <ele>132.8</ele>
        <time>2013-12-20T09:16:16Z</time>
      </trkpt>
      <trkpt lat="48.8364" lon="1.65293">
        <ele>132.32</ele>
        <time>2013-12-20T09:16:30Z</time>
      </trkpt>
      <trkpt lat="48.83638" lon="1.65262">
        <ele>131.84</ele>
        <time>2013-12-20T09:16:45Z</time>
      </trkpt>
      <trkpt lat="48.83636" lon="1.6523">
        <ele>132.32</ele>
        <time>2013-12-20T09:17:02Z</time>
      </trkpt>
      <trkpt lat="48.8363" lon="1.65198">
        <ele>132.32</ele>
        <time>2013-12-20T09:17:19Z</time>
      </trkpt>
      <trkpt lat="48.83622" lon="1.65167">
        <ele>139.53</ele>
        <time>2013-12-20T09:19:20Z</time>
      </trkpt>
      <trkpt lat="48.8362" lon="1.65162">
        <ele>136.16</ele>
        <time>2013-12-20T09:19:30Z</time>
      </trkpt>
      <trkpt lat="48.83618" lon="1.65152">
        <ele>133.76</ele>
        <time>2013-12-20T09:19:38Z</time>
      </trkpt>
      <trkpt lat="48.83614" lon="1.65132">
        <ele>132.8</ele>
        <time>2013-12-20T09:19:50Z</time>
      </trkpt>
      <trkpt lat="48.83612" lon="1.65116">
        <ele>132.8</ele>
        <time>2013-12-20T09:19:57Z</time>
      </trkpt>
      <trkpt lat="48.83606" lon="1.65094">
        <ele>131.84</ele>
        <time>2013-12-20T09:20:09Z</time>
      </trkpt>
      <trkpt lat="48.83603" lon="1.65092">
        <ele>131.84</ele>
        <time>2013-12-20T09:20:12Z</time>
      </trkpt>
      <trkpt lat="48.83596" lon="1.65097">
        <ele>131.36</ele>
        <time>2013-12-20T09:20:19Z</time>
      </trkpt>
      <trkpt lat="48.83584" lon="1.65112">
        <ele>132.8</ele>
        <time>2013-12-20T09:20:34Z</time>
      </trkpt>
      <trkpt lat="48.83574" lon="1.65122">
        <ele>135.68</ele>
        <time>2013-12-20T09:20:47Z</time>
      </trkpt>
      <trkpt lat="48.8356" lon="1.65136">
        <ele>139.05</ele>
        <time>2013-12-20T09:21:03Z</time>
      </trkpt>
      <trkpt lat="48.83541" lon="1.65155">
        <ele>139.05</ele>
        <time>2013-12-20T09:21:19Z</time>
      </trkpt>
      <trkpt lat="48.83531" lon="1.65164">
        <ele>138.09</ele>
        <time>2013-12-20T09:21:26Z</time>
      </trkpt>
      <trkpt lat="48.83526" lon="1.65169">
        <ele>138.09</ele>
        <time>2013-12-20T09:21:30Z</time>
      </trkpt>
      <trkpt lat="48.83499" lon="1.65187">
        <ele>134.72</ele>
        <time>2013-12-20T09:21:49Z</time>
      </trkpt>
      <trkpt lat="48.83473" lon="1.65198">
        <ele>138.57</ele>
        <time>2013-12-20T09:22:06Z</time>
      </trkpt>
      <trkpt lat="48.83465" lon="1.65211">
        <ele>139.05</ele>
        <time>2013-12-20T09:22:20Z</time>
      </trkpt>
      <trkpt lat="48.83451" lon="1.65228">
        <ele>139.05</ele>
        <time>2013-12-20T09:22:38Z</time>
      </trkpt>
      <trkpt lat="48.83437" lon="1.65239">
        <ele>137.61</ele>
        <time>2013-12-20T09:22:48Z</time>
      </trkpt>
      <trkpt lat="48.83415" lon="1.65251">
        <ele>137.13</ele>
        <time>2013-12-20T09:23:03Z</time>
      </trkpt>
      <trkpt lat="48.83401" lon="1.65262">
        <ele>135.68</ele>
        <time>2013-12-20T09:23:17Z</time>
      </trkpt>
      <trkpt lat="48.83384" lon="1.65276">
        <ele>134.24</ele>
        <time>2013-12-20T09:23:31Z</time>
      </trkpt>
      <trkpt lat="48.83366" lon="1.65284">
        <ele>136.64</ele>
        <time>2013-12-20T09:23:44Z</time>
      </trkpt>
      <trkpt lat="48.83363" lon="1.65292">
        <ele>135.68</ele>
        <time>2013-12-20T09:23:51Z</time>
      </trkpt>
      <trkpt lat="48.83358" lon="1.6529">
        <ele>135.68</ele>
        <time>2013-12-20T09:23:55Z</time>
      </trkpt>
      <trkpt lat="48.8335" lon="1.65276">
        <ele>134.72</ele>
        <time>2013-12-20T09:24:07Z</time>
      </trkpt>
      <trkpt lat="48.83342" lon="1.65256">
        <ele>134.72</ele>
        <time>2013-12-20T09:24:21Z</time>
      </trkpt>
      <trkpt lat="48.83333" lon="1.65233">
        <ele>135.68</ele>
        <time>2013-12-20T09:24:36Z</time>
      </trkpt>
      <trkpt lat="48.83321" lon="1.65201">
        <ele>136.16</ele>
        <time>2013-12-20T09:24:55Z</time>
      </trkpt>
      <trkpt lat="48.8331" lon="1.65165">
        <ele>137.61</ele>
        <time>2013-12-20T09:25:09Z</time>
      </trkpt>
      <trkpt lat="48.83302" lon="1.65143">
        <ele>136.64</ele>
        <time>2013-12-20T09:25:22Z</time>
      </trkpt>
      <trkpt lat="48.83289" lon="1.65121">
        <ele>136.16</ele>
        <time>2013-12-20T09:25:42Z</time>
      </trkpt>
      <trkpt lat="48.83272" lon="1.65106">
        <ele>138.09</ele>
        <time>2013-12-20T09:26:00Z</time>
      </trkpt>
      <trkpt lat="48.83269" lon="1.65105">
        <ele>137.61</ele>
        <time>2013-12-20T09:26:02Z</time>
      </trkpt>
      <trkpt lat="48.83246" lon="1.65069">
        <ele>136.16</ele>
        <time>2013-12-20T09:26:23Z</time>
      </trkpt>
      <trkpt lat="48.83234" lon="1.65058">
        <ele>137.13</ele>
        <time>2013-12-20T09:26:36Z</time>
      </trkpt>
      <trkpt lat="48.83213" lon="1.65024">
        <ele>136.16</ele>
        <time>2013-12-20T09:26:54Z</time>
      </trkpt>
      <trkpt lat="48.83196" lon="1.65007">
        <ele>136.64</ele>
        <time>2013-12-20T09:27:12Z</time>
      </trkpt>
      <trkpt lat="48.83173" lon="1.64972">
        <ele>134.72</ele>
        <time>2013-12-20T09:27:32Z</time>
      </trkpt>
      <trkpt lat="48.83159" lon="1.64959">
        <ele>136.16</ele>
        <time>2013-12-20T09:27:50Z</time>
      </trkpt>
      <trkpt lat="48.83146" lon="1.64949">
        <ele>139.05</ele>
        <time>2013-12-20T09:28:05Z</time>
      </trkpt>
      <trkpt lat="48.83134" lon="1.64936">
        <ele>141.45</ele>
        <time>2013-12-20T09:28:15Z</time>
      </trkpt>
      <trkpt lat="48.83115" lon="1.64905">
        <ele>139.05</ele>
        <time>2013-12-20T09:28:33Z</time>
      </trkpt>
      <trkpt lat="48.83101" lon="1.64893">
        <ele>140.97</ele>
        <time>2013-12-20T09:28:49Z</time>
      </trkpt>
      <trkpt lat="48.83082" lon="1.64868">
        <ele>140.01</ele>
        <time>2013-12-20T09:29:06Z</time>
      </trkpt>
      <trkpt lat="48.83065" lon="1.64846">
        <ele>140.01</ele>
        <time>2013-12-20T09:29:24Z</time>
      </trkpt>
      <trkpt lat="48.83046" lon="1.64825">
        <ele>140.01</ele>
        <time>2013-12-20T09:29:44Z</time>
      </trkpt>
      <trkpt lat="48.83033" lon="1.64809">
        <ele>140.01</ele>
        <time>2013-12-20T09:29:58Z</time>
      </trkpt>
      <trkpt lat="48.83015" lon="1.64789">
        <ele>140.01</ele>
        <time>2013-12-20T09:30:15Z</time>
      </trkpt>
      <trkpt lat="48.82998" lon="1.64768">
        <ele>138.09</ele>
        <time>2013-12-20T09:30:30Z</time>
      </trkpt>
      <trkpt lat="48.82983" lon="1.64746">
        <ele>140.01</ele>
        <time>2013-12-20T09:30:45Z</time>
      </trkpt>
      <trkpt lat="48.82971" lon="1.6474">
        <ele>140.97</ele>
        <time>2013-12-20T09:30:58Z</time>
      </trkpt>
      <trkpt lat="48.82949" lon="1.64716">
        <ele>140.49</ele>
        <time>2013-12-20T09:31:16Z</time>
      </trkpt>
      <trkpt lat="48.82935" lon="1.64704">
        <ele>140.49</ele>
        <time>2013-12-20T09:31:30Z</time>
      </trkpt>
      <trkpt lat="48.82919" lon="1.64697">
        <ele>141.45</ele>
        <time>2013-12-20T09:31:48Z</time>
      </trkpt>
      <trkpt lat="48.82908" lon="1.64687">
        <ele>141.45</ele>
        <time>2013-12-20T09:31:58Z</time>
      </trkpt>
      <trkpt lat="48.82898" lon="1.64685">
        <ele>141.93</ele>
        <time>2013-12-20T09:32:07Z</time>
      </trkpt>
      <trkpt lat="48.82889" lon="1.64675">
        <ele>141.45</ele>
        <time>2013-12-20T09:32:17Z</time>
      </trkpt>
      <trkpt lat="48.82875" lon="1.64664">
        <ele>140.01</ele>
        <time>2013-12-20T09:32:30Z</time>
      </trkpt>
      <trkpt lat="48.8286" lon="1.64648">
        <ele>140.01</ele>
        <time>2013-12-20T09:32:42Z</time>
      </trkpt>
      <trkpt lat="48.8284" lon="1.64613">
        <ele>135.68</ele>
        <time>2013-12-20T09:32:59Z</time>
      </trkpt>
      <trkpt lat="48.82829" lon="1.64608">
        <ele>133.28</ele>
        <time>2013-12-20T09:33:12Z</time>
      </trkpt>
      <trkpt lat="48.82826" lon="1.64606">
        <ele>133.28</ele>
        <time>2013-12-20T09:33:15Z</time>
      </trkpt>
      <trkpt lat="48.82807" lon="1.64581">
        <ele>131.36</ele>
        <time>2013-12-20T09:33:30Z</time>
      </trkpt>
      <trkpt lat="48.82793" lon="1.64573">
        <ele>130.88</ele>
        <time>2013-12-20T09:33:45Z</time>
      </trkpt>
      <trkpt lat="48.8279" lon="1.64572">
        <ele>130.88</ele>
        <time>2013-12-20T09:33:48Z</time>
      </trkpt>
      <trkpt lat="48.82784" lon="1.64567">
        <ele>130.88</ele>
        <time>2013-12-20T09:33:52Z</time>
      </trkpt>
      <trkpt lat="48.82769" lon="1.64545">
        <ele>130.4</ele>
        <time>2013-12-20T09:34:05Z</time>
      </trkpt>
      <trkpt lat="48.82755" lon="1.64535">
        <ele>127.51</ele>
        <time>2013-12-20T09:34:18Z</time>
      </trkpt>
      <trkpt lat="48.82734" lon="1.64503">
        <ele>125.11</ele>
        <time>2013-12-20T09:34:35Z</time>
      </trkpt>
      <trkpt lat="48.82719" lon="1.64494">
        <ele>126.55</ele>
        <time>2013-12-20T09:34:52Z</time>
      </trkpt>
      <trkpt lat="48.82709" lon="1.64488">
        <ele>127.03</ele>
        <time>2013-12-20T09:34:59Z</time>
      </trkpt>
      <trkpt lat="48.82699" lon="1.64473">
        <ele>127.99</ele>
        <time>2013-12-20T09:35:07Z</time>
      </trkpt>
      <trkpt lat="48.82684" lon="1.64462">
        <ele>126.55</ele>
        <time>2013-12-20T09:35:21Z</time>
      </trkpt>
      <trkpt lat="48.82683" lon="1.64461">
        <ele>126.07</ele>
        <time>2013-12-20T09:35:23Z</time>
      </trkpt>
      <trkpt lat="48.82678" lon="1.6446">
        <ele>126.07</ele>
        <time>2013-12-20T09:35:27Z</time>
      </trkpt>
      <trkpt lat="48.82673" lon="1.64457">
        <ele>125.59</ele>
        <time>2013-12-20T09:35:31Z</time>
      </trkpt>
      <trkpt lat="48.82651" lon="1.64437">
        <ele>125.59</ele>
        <time>2013-12-20T09:35:49Z</time>
      </trkpt>
      <trkpt lat="48.82638" lon="1.64426">
        <ele>124.63</ele>
        <time>2013-12-20T09:36:00Z</time>
      </trkpt>
      <trkpt lat="48.82622" lon="1.64416">
        <ele>122.71</ele>
        <time>2013-12-20T09:36:17Z</time>
      </trkpt>
      <trkpt lat="48.826" lon="1.644">
        <ele>122.22</ele>
        <time>2013-12-20T09:36:32Z</time>
      </trkpt>
      <trkpt lat="48.82589" lon="1.6439">
        <ele>122.22</ele>
        <time>2013-12-20T09:36:45Z</time>
      </trkpt>
      <trkpt lat="48.82578" lon="1.64382">
        <ele>122.71</ele>
        <time>2013-12-20T09:36:54Z</time>
      </trkpt>
      <trkpt lat="48.82558" lon="1.64367">
        <ele>125.59</ele>
        <time>2013-12-20T09:37:06Z</time>
      </trkpt>
      <trkpt lat="48.82546" lon="1.64356">
        <ele>125.59</ele>
        <time>2013-12-20T09:37:21Z</time>
      </trkpt>
      <trkpt lat="48.82532" lon="1.64343">
        <ele>126.07</ele>
        <time>2013-12-20T09:37:37Z</time>
      </trkpt>
      <trkpt lat="48.82513" lon="1.64328">
        <ele>127.99</ele>
        <time>2013-12-20T09:37:55Z</time>
      </trkpt>
      <trkpt lat="48.82499" lon="1.64317">
        <ele>127.51</ele>
        <time>2013-12-20T09:38:06Z</time>
      </trkpt>
      <trkpt lat="48.82479" lon="1.64296">
        <ele>127.03</ele>
        <time>2013-12-20T09:38:21Z</time>
      </trkpt>
      <trkpt lat="48.82461" lon="1.64279">
        <ele>126.07</ele>
        <time>2013-12-20T09:38:36Z</time>
      </trkpt>
      <trkpt lat="48.82452" lon="1.64272">
        <ele>126.07</ele>
        <time>2013-12-20T09:38:50Z</time>
      </trkpt>
      <trkpt lat="48.82433" lon="1.64251">
        <ele>127.51</ele>
        <time>2013-12-20T09:39:05Z</time>
      </trkpt>
      <trkpt lat="48.82419" lon="1.64234">
        <ele>126.55</ele>
        <time>2013-12-20T09:39:20Z</time>
      </trkpt>
      <trkpt lat="48.82415" lon="1.64229">
        <ele>126.55</ele>
        <time>2013-12-20T09:39:25Z</time>
      </trkpt>
      <trkpt lat="48.82407" lon="1.6421">
        <ele>126.07</ele>
        <time>2013-12-20T09:39:36Z</time>
      </trkpt>
      <trkpt lat="48.824" lon="1.64178">
        <ele>125.59</ele>
        <time>2013-12-20T09:39:50Z</time>
      </trkpt>
      <trkpt lat="48.82397" lon="1.64166">
        <ele>125.11</ele>
        <time>2013-12-20T09:40:01Z</time>
      </trkpt>
      <trkpt lat="48.82396" lon="1.64136">
        <ele>126.55</ele>
        <time>2013-12-20T09:40:14Z</time>
      </trkpt>
      <trkpt lat="48.82403" lon="1.64109">
        <ele>132.32</ele>
        <time>2013-12-20T09:40:28Z</time>
      </trkpt>
      <trkpt lat="48.824" lon="1.64101">
        <ele>133.76</ele>
        <time>2013-12-20T09:40:36Z</time>
      </trkpt>
      <trkpt lat="48.82374" lon="1.64094">
        <ele>132.8</ele>
        <time>2013-12-20T09:40:53Z</time>
      </trkpt>
      <trkpt lat="48.82358" lon="1.64094">
        <ele>130.88</ele>
        <time>2013-12-20T09:41:07Z</time>
      </trkpt>
      <trkpt lat="48.82356" lon="1.64093">
        <ele>130.4</ele>
        <time>2013-12-20T09:41:09Z</time>
      </trkpt>
      <trkpt lat="48.82354" lon="1.6409">
        <ele>129.92</ele>
        <time>2013-12-20T09:41:12Z</time>
      </trkpt>
      <trkpt lat="48.82351" lon="1.64082">
        <ele>129.92</ele>
        <time>2013-12-20T09:41:17Z</time>
      </trkpt>
      <trkpt lat="48.82344" lon="1.64061">
        <ele>127.99</ele>
        <time>2013-12-20T09:41:32Z</time>
      </trkpt>
      <trkpt lat="48.82336" lon="1.64033">
        <ele>126.07</ele>
        <time>2013-12-20T09:41:46Z</time>
      </trkpt>
      <trkpt lat="48.82331" lon="1.6401">
        <ele>127.99</ele>
        <time>2013-12-20T09:41:59Z</time>
      </trkpt>
      <trkpt lat="48.8233" lon="1.63991">
        <ele>127.51</ele>
        <time>2013-12-20T09:42:10Z</time>
      </trkpt>
      <trkpt lat="48.82325" lon="1.63966">
        <ele>129.43</ele>
        <time>2013-12-20T09:42:24Z</time>
      </trkpt>
      <trkpt lat="48.82324" lon="1.63958">
        <ele>129.92</ele>
        <time>2013-12-20T09:42:30Z</time>
      </trkpt>
      <trkpt lat="48.8232" lon="1.63936">
        <ele>129.43</ele>
        <time>2013-12-20T09:42:44Z</time>
      </trkpt>
      <trkpt lat="48.82319" lon="1.63932">
        <ele>129.92</ele>
        <time>2013-12-20T09:42:46Z</time>
      </trkpt>
      <trkpt lat="48.82319" lon="1.63926">
        <ele>130.4</ele>
        <time>2013-12-20T09:42:49Z</time>
      </trkpt>
      <trkpt lat="48.82314" lon="1.63902">
        <ele>130.4</ele>
        <time>2013-12-20T09:43:02Z</time>
      </trkpt>
      <trkpt lat="48.82301" lon="1.63886">
        <ele>129.92</ele>
        <time>2013-12-20T09:43:16Z</time>
      </trkpt>
      <trkpt lat="48.82294" lon="1.63876">
        <ele>130.4</ele>
        <time>2013-12-20T09:43:26Z</time>
      </trkpt>
      <trkpt lat="48.82286" lon="1.63865">
        <ele>129.43</ele>
        <time>2013-12-20T09:43:35Z</time>
      </trkpt>
      <trkpt lat="48.82269" lon="1.63879">
        <ele>128.95</ele>
        <time>2013-12-20T09:43:48Z</time>
      </trkpt>
      <trkpt lat="48.82265" lon="1.63884">
        <ele>128.47</ele>
        <time>2013-12-20T09:43:52Z</time>
      </trkpt>
      <trkpt lat="48.82248" lon="1.6391">
        <ele>127.99</ele>
        <time>2013-12-20T09:44:10Z</time>
      </trkpt>
      <trkpt lat="48.82238" lon="1.63931">
        <ele>127.51</ele>
        <time>2013-12-20T09:44:24Z</time>
      </trkpt>
      <trkpt lat="48.82233" lon="1.63942">
        <ele>127.51</ele>
        <time>2013-12-20T09:44:31Z</time>
      </trkpt>
      <trkpt lat="48.8223" lon="1.63948">
        <ele>128.47</ele>
        <time>2013-12-20T09:44:35Z</time>
      </trkpt>
      <trkpt lat="48.82221" lon="1.63969">
        <ele>126.55</ele>
        <time>2013-12-20T09:44:51Z</time>
      </trkpt>
      <trkpt lat="48.82216" lon="1.63983">
        <ele>126.55</ele>
        <time>2013-12-20T09:45:00Z</time>
      </trkpt>
      <trkpt lat="48.82212" lon="1.63992">
        <ele>125.11</ele>
        <time>2013-12-20T09:45:06Z</time>
      </trkpt>
      <trkpt lat="48.82208" lon="1.64001">
        <ele>124.63</ele>
        <time>2013-12-20T09:45:11Z</time>
      </trkpt>
      <trkpt lat="48.82191" lon="1.64027">
        <ele>124.15</ele>
        <time>2013-12-20T09:45:27Z</time>
      </trkpt>
      <trkpt lat="48.82189" lon="1.6403">
        <ele>124.15</ele>
        <time>2013-12-20T09:45:29Z</time>
      </trkpt>
      <trkpt lat="48.82182" lon="1.64043">
        <ele>124.15</ele>
        <time>2013-12-20T09:45:38Z</time>
      </trkpt>
      <trkpt lat="48.82172" lon="1.64069">
        <ele>121.26</ele>
        <time>2013-12-20T09:45:57Z</time>
      </trkpt>
      <trkpt lat="48.82169" lon="1.64074">
        <ele>120.78</ele>
        <time>2013-12-20T09:46:00Z</time>
      </trkpt>
      <trkpt lat="48.82166" lon="1.64078">
        <ele>121.26</ele>
        <time>2013-12-20T09:46:03Z</time>
      </trkpt>
      <trkpt lat="48.82161" lon="1.64088">
        <ele>121.74</ele>
        <time>2013-12-20T09:46:08Z</time>
      </trkpt>
      <trkpt lat="48.82153" lon="1.64109">
        <ele>122.22</ele>
        <time>2013-12-20T09:46:25Z</time>
      </trkpt>
      <trkpt lat="48.82143" lon="1.64124">
        <ele>122.71</ele>
        <time>2013-12-20T09:46:35Z</time>
      </trkpt>
      <trkpt lat="48.82128" lon="1.64148">
        <ele>120.78</ele>
        <time>2013-12-20T09:46:52Z</time>
      </trkpt>
      <trkpt lat="48.82114" lon="1.64168">
        <ele>121.26</ele>
        <time>2013-12-20T09:47:07Z</time>
      </trkpt>
      <trkpt lat="48.82111" lon="1.64176">
        <ele>122.71</ele>
        <time>2013-12-20T09:47:21Z</time>
      </trkpt>
      <trkpt lat="48.821" lon="1.64192">
        <ele>121.74</ele>
        <time>2013-12-20T09:47:35Z</time>
      </trkpt>
      <trkpt lat="48.82086" lon="1.64212">
        <ele>123.19</ele>
        <time>2013-12-20T09:47:50Z</time>
      </trkpt>
      <trkpt lat="48.82078" lon="1.64222">
        <ele>122.71</ele>
        <time>2013-12-20T09:48:00Z</time>
      </trkpt>
      <trkpt lat="48.82067" lon="1.64233">
        <ele>122.71</ele>
        <time>2013-12-20T09:48:12Z</time>
      </trkpt>
      <trkpt lat="48.82054" lon="1.64249">
        <ele>122.71</ele>
        <time>2013-12-20T09:48:26Z</time>
      </trkpt>
      <trkpt lat="48.82048" lon="1.64254">
        <ele>122.71</ele>
        <time>2013-12-20T09:48:31Z</time>
      </trkpt>
      <trkpt lat="48.82039" lon="1.6425">
        <ele>121.74</ele>
        <time>2013-12-20T09:48:39Z</time>
      </trkpt>
      <trkpt lat="48.82031" lon="1.64239">
        <ele>119.34</ele>
        <time>2013-12-20T09:48:53Z</time>
      </trkpt>
      <trkpt lat="48.82023" lon="1.64225">
        <ele>119.34</ele>
        <time>2013-12-20T09:49:04Z</time>
      </trkpt>
      <trkpt lat="48.82018" lon="1.64218">
        <ele>119.82</ele>
        <time>2013-12-20T09:49:08Z</time>
      </trkpt>
      <trkpt lat="48.82004" lon="1.64193">
        <ele>122.22</ele>
        <time>2013-12-20T09:49:23Z</time>
      </trkpt>
      <trkpt lat="48.81987" lon="1.64171">
        <ele>123.19</ele>
        <time>2013-12-20T09:49:41Z</time>
      </trkpt>
      <trkpt lat="48.8197" lon="1.64139">
        <ele>124.63</ele>
        <time>2013-12-20T09:49:58Z</time>
      </trkpt>
      <trkpt lat="48.81957" lon="1.64115">
        <ele>124.15</ele>
        <time>2013-12-20T09:50:13Z</time>
      </trkpt>
      <trkpt lat="48.81945" lon="1.641">
        <ele>124.63</ele>
        <time>2013-12-20T09:50:27Z</time>
      </trkpt>
      <trkpt lat="48.81931" lon="1.64081">
        <ele>125.11</ele>
        <time>2013-12-20T09:50:45Z</time>
      </trkpt>
      <trkpt lat="48.81916" lon="1.64062">
        <ele>123.67</ele>
        <time>2013-12-20T09:51:02Z</time>
      </trkpt>
      <trkpt lat="48.819" lon="1.64039">
        <ele>122.71</ele>
        <time>2013-12-20T09:51:20Z</time>
      </trkpt>
      <trkpt lat="48.8188" lon="1.64014">
        <ele>123.19</ele>
        <time>2013-12-20T09:51:39Z</time>
      </trkpt>
      <trkpt lat="48.81867" lon="1.63996">
        <ele>123.67</ele>
        <time>2013-12-20T09:51:54Z</time>
      </trkpt>
      <trkpt lat="48.81861" lon="1.63982">
        <ele>124.15</ele>
        <time>2013-12-20T09:52:05Z</time>
      </trkpt>
      <trkpt lat="48.81857" lon="1.63976">
        <ele>124.63</ele>
        <time>2013-12-20T09:52:09Z</time>
      </trkpt>
      <trkpt lat="48.81856" lon="1.63972">
        <ele>124.63</ele>
        <time>2013-12-20T09:52:11Z</time>
      </trkpt>
      <trkpt lat="48.81854" lon="1.63968">
        <ele>125.11</ele>
        <time>2013-12-20T09:52:14Z</time>
      </trkpt>
      <trkpt lat="48.81851" lon="1.63963">
        <ele>125.11</ele>
        <time>2013-12-20T09:52:20Z</time>
      </trkpt>
      <trkpt lat="48.81843" lon="1.63951">
        <ele>125.59</ele>
        <time>2013-12-20T09:52:34Z</time>
      </trkpt>
      <trkpt lat="48.81826" lon="1.63931">
        <ele>124.15</ele>
        <time>2013-12-20T09:52:49Z</time>
      </trkpt>
      <trkpt lat="48.81804" lon="1.63909">
        <ele>125.59</ele>
        <time>2013-12-20T09:53:06Z</time>
      </trkpt>
      <trkpt lat="48.8179" lon="1.63893">
        <ele>127.51</ele>
        <time>2013-12-20T09:53:20Z</time>
      </trkpt>
      <trkpt lat="48.81783" lon="1.63883">
        <ele>128.47</ele>
        <time>2013-12-20T09:53:36Z</time>
      </trkpt>
      <trkpt lat="48.81762" lon="1.63863">
        <ele>127.99</ele>
        <time>2013-12-20T09:53:51Z</time>
      </trkpt>
      <trkpt lat="48.81744" lon="1.63842">
        <ele>133.28</ele>
        <time>2013-12-20T09:54:07Z</time>
      </trkpt>
      <trkpt lat="48.81737" lon="1.63825">
        <ele>130.88</ele>
        <time>2013-12-20T09:54:22Z</time>
      </trkpt>
      <trkpt lat="48.81729" lon="1.63805">
        <ele>122.71</ele>
        <time>2013-12-20T09:54:38Z</time>
      </trkpt>
      <trkpt lat="48.81727" lon="1.63801">
        <ele>119.82</ele>
        <time>2013-12-20T09:54:43Z</time>
      </trkpt>
      <trkpt lat="48.81721" lon="1.63794">
        <ele>119.34</ele>
        <time>2013-12-20T09:54:52Z</time>
      </trkpt>
      <trkpt lat="48.81694" lon="1.6376">
        <ele>122.22</ele>
        <time>2013-12-20T09:55:08Z</time>
      </trkpt>
      <trkpt lat="48.81679" lon="1.63741">
        <ele>123.67</ele>
        <time>2013-12-20T09:55:23Z</time>
      </trkpt>
      <trkpt lat="48.81669" lon="1.6373">
        <ele>122.22</ele>
        <time>2013-12-20T09:55:38Z</time>
      </trkpt>
      <trkpt lat="48.8165" lon="1.6371">
        <ele>127.03</ele>
        <time>2013-12-20T09:55:52Z</time>
      </trkpt>
      <trkpt lat="48.81641" lon="1.63703">
        <ele>126.55</ele>
        <time>2013-12-20T09:56:03Z</time>
      </trkpt>
      <trkpt lat="48.81627" lon="1.63694">
        <ele>123.67</ele>
        <time>2013-12-20T09:56:18Z</time>
      </trkpt>
      <trkpt lat="48.81608" lon="1.63678">
        <ele>124.15</ele>
        <time>2013-12-20T09:56:33Z</time>
      </trkpt>
      <trkpt lat="48.81589" lon="1.63661">
        <ele>128.47</ele>
        <time>2013-12-20T09:56:48Z</time>
      </trkpt>
      <trkpt lat="48.81582" lon="1.63647">
        <ele>123.67</ele>
        <time>2013-12-20T09:57:02Z</time>
      </trkpt>
      <trkpt lat="48.81579" lon="1.63643">
        <ele>123.19</ele>
        <time>2013-12-20T09:57:05Z</time>
      </trkpt>
      <trkpt lat="48.81573" lon="1.63631">
        <ele>121.74</ele>
        <time>2013-12-20T09:57:11Z</time>
      </trkpt>
      <trkpt lat="48.81552" lon="1.63604">
        <ele>124.63</ele>
        <time>2013-12-20T09:57:26Z</time>
      </trkpt>
      <trkpt lat="48.81542" lon="1.63584">
        <ele>118.38</ele>
        <time>2013-12-20T09:57:45Z</time>
      </trkpt>
      <trkpt lat="48.81523" lon="1.63558">
        <ele>119.34</ele>
        <time>2013-12-20T09:58:03Z</time>
      </trkpt>
      <trkpt lat="48.81503" lon="1.63534">
        <ele>122.71</ele>
        <time>2013-12-20T09:58:18Z</time>
      </trkpt>
      <trkpt lat="48.81493" lon="1.63518">
        <ele>118.86</ele>
        <time>2013-12-20T09:58:34Z</time>
      </trkpt>
      <trkpt lat="48.81473" lon="1.63494">
        <ele>116.46</ele>
        <time>2013-12-20T09:58:49Z</time>
      </trkpt>
      <trkpt lat="48.81456" lon="1.63476">
        <ele>119.82</ele>
        <time>2013-12-20T09:59:05Z</time>
      </trkpt>
      <trkpt lat="48.81447" lon="1.63463">
        <ele>118.38</ele>
        <time>2013-12-20T09:59:19Z</time>
      </trkpt>
      <trkpt lat="48.81428" lon="1.63441">
        <ele>119.82</ele>
        <time>2013-12-20T09:59:38Z</time>
      </trkpt>
      <trkpt lat="48.81415" lon="1.63425">
        <ele>118.38</ele>
        <time>2013-12-20T09:59:52Z</time>
      </trkpt>
      <trkpt lat="48.81401" lon="1.6341">
        <ele>119.34</ele>
        <time>2013-12-20T10:00:05Z</time>
      </trkpt>
      <trkpt lat="48.81394" lon="1.63402">
        <ele>118.38</ele>
        <time>2013-12-20T10:00:16Z</time>
      </trkpt>
      <trkpt lat="48.81383" lon="1.63388">
        <ele>117.9</ele>
        <time>2013-12-20T10:00:27Z</time>
      </trkpt>
      <trkpt lat="48.81367" lon="1.63368">
        <ele>118.86</ele>
        <time>2013-12-20T10:00:44Z</time>
      </trkpt>
      <trkpt lat="48.81361" lon="1.63362">
        <ele>117.9</ele>
        <time>2013-12-20T10:00:51Z</time>
      </trkpt>
      <trkpt lat="48.81345" lon="1.63348">
        <ele>117.9</ele>
        <time>2013-12-20T10:01:06Z</time>
      </trkpt>
      <trkpt lat="48.81329" lon="1.63328">
        <ele>117.42</ele>
        <time>2013-12-20T10:01:23Z</time>
      </trkpt>
      <trkpt lat="48.81316" lon="1.63316">
        <ele>116.94</ele>
        <time>2013-12-20T10:01:38Z</time>
      </trkpt>
      <trkpt lat="48.81301" lon="1.633">
        <ele>117.9</ele>
        <time>2013-12-20T10:01:53Z</time>
      </trkpt>
      <trkpt lat="48.81293" lon="1.63293">
        <ele>116.46</ele>
        <time>2013-12-20T10:02:05Z</time>
      </trkpt>
      <trkpt lat="48.81286" lon="1.63288">
        <ele>116.94</ele>
        <time>2013-12-20T10:02:12Z</time>
      </trkpt>
      <trkpt lat="48.81268" lon="1.63269">
        <ele>118.38</ele>
        <time>2013-12-20T10:02:29Z</time>
      </trkpt>
      <trkpt lat="48.81247" lon="1.63247">
        <ele>115.5</ele>
        <time>2013-12-20T10:02:49Z</time>
      </trkpt>
      <trkpt lat="48.81225" lon="1.63226">
        <ele>115.5</ele>
        <time>2013-12-20T10:03:10Z</time>
      </trkpt>
      <trkpt lat="48.81206" lon="1.63206">
        <ele>115.5</ele>
        <time>2013-12-20T10:03:29Z</time>
      </trkpt>
      <trkpt lat="48.81182" lon="1.63183">
        <ele>115.98</ele>
        <time>2013-12-20T10:03:51Z</time>
      </trkpt>
      <trkpt lat="48.81163" lon="1.63162">
        <ele>115.5</ele>
        <time>2013-12-20T10:04:10Z</time>
      </trkpt>
      <trkpt lat="48.81141" lon="1.63142">
        <ele>115.5</ele>
        <time>2013-12-20T10:04:30Z</time>
      </trkpt>
      <trkpt lat="48.8112" lon="1.6312">
        <ele>117.9</ele>
        <time>2013-12-20T10:04:49Z</time>
      </trkpt>
      <trkpt lat="48.81115" lon="1.63108">
        <ele>117.42</ele>
        <time>2013-12-20T10:04:58Z</time>
      </trkpt>
      <trkpt lat="48.811" lon="1.63097">
        <ele>117.9</ele>
        <time>2013-12-20T10:05:12Z</time>
      </trkpt>
      <trkpt lat="48.81083" lon="1.6308">
        <ele>115.98</ele>
        <time>2013-12-20T10:05:30Z</time>
      </trkpt>
      <trkpt lat="48.81069" lon="1.63064">
        <ele>115.01</ele>
        <time>2013-12-20T10:05:43Z</time>
      </trkpt>
      <trkpt lat="48.81053" lon="1.63049">
        <ele>114.53</ele>
        <time>2013-12-20T10:05:59Z</time>
      </trkpt>
      <trkpt lat="48.81036" lon="1.63031">
        <ele>115.01</ele>
        <time>2013-12-20T10:06:15Z</time>
      </trkpt>
      <trkpt lat="48.81026" lon="1.63012">
        <ele>114.05</ele>
        <time>2013-12-20T10:06:28Z</time>
      </trkpt>
      <trkpt lat="48.81025" lon="1.63005">
        <ele>113.57</ele>
        <time>2013-12-20T10:06:32Z</time>
      </trkpt>
      <trkpt lat="48.81016" lon="1.62978">
        <ele>110.69</ele>
        <time>2013-12-20T10:06:51Z</time>
      </trkpt>
      <trkpt lat="48.81008" lon="1.62952">
        <ele>108.77</ele>
        <time>2013-12-20T10:07:08Z</time>
      </trkpt>
      <trkpt lat="48.81005" lon="1.62942">
        <ele>109.25</ele>
        <time>2013-12-20T10:07:16Z</time>
      </trkpt>
      <trkpt lat="48.80997" lon="1.62928">
        <ele>108.77</ele>
        <time>2013-12-20T10:07:26Z</time>
      </trkpt>
      <trkpt lat="48.80995" lon="1.62928">
        <ele>108.77</ele>
        <time>2013-12-20T10:07:28Z</time>
      </trkpt>
      <trkpt lat="48.80989" lon="1.62925">
        <ele>108.29</ele>
        <time>2013-12-20T10:07:35Z</time>
      </trkpt>
      <trkpt lat="48.80981" lon="1.6293">
        <ele>107.81</ele>
        <time>2013-12-20T10:07:44Z</time>
      </trkpt>
      <trkpt lat="48.80979" lon="1.62935">
        <ele>107.32</ele>
        <time>2013-12-20T10:07:48Z</time>
      </trkpt>
      <trkpt lat="48.80977" lon="1.62938">
        <ele>106.84</ele>
        <time>2013-12-20T10:07:51Z</time>
      </trkpt>
      <trkpt lat="48.8097" lon="1.62952">
        <ele>106.84</ele>
        <time>2013-12-20T10:08:05Z</time>
      </trkpt>
      <trkpt lat="48.80963" lon="1.62953">
        <ele>106.84</ele>
        <time>2013-12-20T10:08:16Z</time>
      </trkpt>
      <trkpt lat="48.80961" lon="1.6295">
        <ele>107.81</ele>
        <time>2013-12-20T10:08:30Z</time>
      </trkpt>
      <trkpt lat="48.80953" lon="1.6294">
        <ele>107.81</ele>
        <time>2013-12-20T10:08:43Z</time>
      </trkpt>
      <trkpt lat="48.80952" lon="1.62938">
        <ele>107.81</ele>
        <time>2013-12-20T10:08:50Z</time>
      </trkpt>
      <trkpt lat="48.80949" lon="1.62933">
        <ele>107.81</ele>
        <time>2013-12-20T10:08:55Z</time>
      </trkpt>
      <trkpt lat="48.80947" lon="1.62932">
        <ele>107.81</ele>
        <time>2013-12-20T10:08:59Z</time>
      </trkpt>
      <trkpt lat="48.80931" lon="1.62917">
        <ele>107.81</ele>
        <time>2013-12-20T10:09:15Z</time>
      </trkpt>
      <trkpt lat="48.80917" lon="1.62903">
        <ele>107.81</ele>
        <time>2013-12-20T10:09:30Z</time>
      </trkpt>
      <trkpt lat="48.80901" lon="1.62887">
        <ele>108.29</ele>
        <time>2013-12-20T10:09:46Z</time>
      </trkpt>
      <trkpt lat="48.80892" lon="1.62867">
        <ele>107.81</ele>
        <time>2013-12-20T10:10:00Z</time>
      </trkpt>
      <trkpt lat="48.80884" lon="1.6285">
        <ele>106.36</ele>
        <time>2013-12-20T10:10:13Z</time>
      </trkpt>
      <trkpt lat="48.80864" lon="1.62832">
        <ele>102.52</ele>
        <time>2013-12-20T10:10:30Z</time>
      </trkpt>
      <trkpt lat="48.80856" lon="1.62824">
        <ele>102.52</ele>
        <time>2013-12-20T10:10:36Z</time>
      </trkpt>
      <trkpt lat="48.80847" lon="1.62831">
        <ele>102.52</ele>
        <time>2013-12-20T10:10:44Z</time>
      </trkpt>
      <trkpt lat="48.80836" lon="1.62859">
        <ele>105.88</ele>
        <time>2013-12-20T10:11:01Z</time>
      </trkpt>
      <trkpt lat="48.80823" lon="1.6288">
        <ele>106.84</ele>
        <time>2013-12-20T10:11:18Z</time>
      </trkpt>
      <trkpt lat="48.80821" lon="1.6289">
        <ele>107.32</ele>
        <time>2013-12-20T10:11:24Z</time>
      </trkpt>
      <trkpt lat="48.80821" lon="1.62895">
        <ele>107.32</ele>
        <time>2013-12-20T10:11:27Z</time>
      </trkpt>
      <trkpt lat="48.80814" lon="1.62916">
        <ele>105.4</ele>
        <time>2013-12-20T10:11:41Z</time>
      </trkpt>
      <trkpt lat="48.80803" lon="1.62937">
        <ele>98.67</ele>
        <time>2013-12-20T10:11:56Z</time>
      </trkpt>
      <trkpt lat="48.8079" lon="1.62963">
        <ele>97.71</ele>
        <time>2013-12-20T10:12:12Z</time>
      </trkpt>
      <trkpt lat="48.80779" lon="1.62987">
        <ele>98.67</ele>
        <time>2013-12-20T10:12:27Z</time>
      </trkpt>
      <trkpt lat="48.80768" lon="1.63007">
        <ele>97.23</ele>
        <time>2013-12-20T10:12:41Z</time>
      </trkpt>
      <trkpt lat="48.80763" lon="1.63014">
        <ele>97.23</ele>
        <time>2013-12-20T10:12:46Z</time>
      </trkpt>
      <trkpt lat="48.8076" lon="1.6302">
        <ele>96.75</ele>
        <time>2013-12-20T10:12:50Z</time>
      </trkpt>
      <trkpt lat="48.80759" lon="1.63028">
        <ele>96.27</ele>
        <time>2013-12-20T10:12:55Z</time>
      </trkpt>
      <trkpt lat="48.80761" lon="1.63041">
        <ele>98.19</ele>
        <time>2013-12-20T10:13:02Z</time>
      </trkpt>
      <trkpt lat="48.80763" lon="1.63047">
        <ele>100.11</ele>
        <time>2013-12-20T10:13:06Z</time>
      </trkpt>
      <trkpt lat="48.80764" lon="1.63047">
        <ele>102.52</ele>
        <time>2013-12-20T10:13:16Z</time>
      </trkpt>
      <trkpt lat="48.80763" lon="1.63045">
        <ele>104.92</ele>
        <time>2013-12-20T10:13:43Z</time>
      </trkpt>
      <trkpt lat="48.80765" lon="1.63049">
        <ele>104.92</ele>
        <time>2013-12-20T10:13:52Z</time>
      </trkpt>
      <trkpt lat="48.80773" lon="1.63056">
        <ele>107.32</ele>
        <time>2013-12-20T10:14:04Z</time>
      </trkpt>
      <trkpt lat="48.80783" lon="1.63068">
        <ele>105.88</ele>
        <time>2013-12-20T10:14:17Z</time>
      </trkpt>
      <trkpt lat="48.8079" lon="1.63077">
        <ele>104.44</ele>
        <time>2013-12-20T10:14:32Z</time>
      </trkpt>
      <trkpt lat="48.80793" lon="1.6308">
        <ele>105.4</ele>
        <time>2013-12-20T10:14:45Z</time>
      </trkpt>
      <trkpt lat="48.80797" lon="1.63084">
        <ele>105.4</ele>
        <time>2013-12-20T10:14:58Z</time>
      </trkpt>
      <trkpt lat="48.80804" lon="1.63093">
        <ele>103.96</ele>
        <time>2013-12-20T10:15:13Z</time>
      </trkpt>
      <trkpt lat="48.80821" lon="1.63111">
        <ele>102.52</ele>
        <time>2013-12-20T10:15:27Z</time>
      </trkpt>
      <trkpt lat="48.80836" lon="1.63129">
        <ele>103</ele>
        <time>2013-12-20T10:15:40Z</time>
      </trkpt>
      <trkpt lat="48.8085" lon="1.63147">
        <ele>104.44</ele>
        <time>2013-12-20T10:15:55Z</time>
      </trkpt>
      <trkpt lat="48.80862" lon="1.63167">
        <ele>104.92</ele>
        <time>2013-12-20T10:16:10Z</time>
      </trkpt>
      <trkpt lat="48.80859" lon="1.63173">
        <ele>104.92</ele>
        <time>2013-12-20T10:16:16Z</time>
      </trkpt>
      <trkpt lat="48.8085" lon="1.63181">
        <ele>103</ele>
        <time>2013-12-20T10:16:22Z</time>
      </trkpt>
      <trkpt lat="48.80847" lon="1.6319">
        <ele>103</ele>
        <time>2013-12-20T10:16:26Z</time>
      </trkpt>
      <trkpt lat="48.80837" lon="1.63215">
        <ele>102.52</ele>
        <time>2013-12-20T10:16:39Z</time>
      </trkpt>
      <trkpt lat="48.80829" lon="1.63235">
        <ele>103.48</ele>
        <time>2013-12-20T10:16:53Z</time>
      </trkpt>
      <trkpt lat="48.80824" lon="1.63243">
        <ele>103.96</ele>
        <time>2013-12-20T10:16:58Z</time>
      </trkpt>
      <trkpt lat="48.80823" lon="1.63244">
        <ele>103.96</ele>
        <time>2013-12-20T10:17:06Z</time>
      </trkpt>
      <trkpt lat="48.80822" lon="1.63247">
        <ele>103.96</ele>
        <time>2013-12-20T10:17:08Z</time>
      </trkpt>
      <trkpt lat="48.80817" lon="1.63253">
        <ele>103</ele>
        <time>2013-12-20T10:17:13Z</time>
      </trkpt>
      <trkpt lat="48.80808" lon="1.63252">
        <ele>103</ele>
        <time>2013-12-20T10:17:21Z</time>
      </trkpt>
      <trkpt lat="48.80795" lon="1.63237">
        <ele>104.44</ele>
        <time>2013-12-20T10:17:32Z</time>
      </trkpt>
      <trkpt lat="48.80792" lon="1.63235">
        <ele>104.44</ele>
        <time>2013-12-20T10:17:40Z</time>
      </trkpt>
      <trkpt lat="48.80783" lon="1.63235">
        <ele>105.4</ele>
        <time>2013-12-20T10:17:48Z</time>
      </trkpt>
      <trkpt lat="48.80779" lon="1.63238">
        <ele>105.88</ele>
        <time>2013-12-20T10:17:58Z</time>
      </trkpt>
      <trkpt lat="48.8077" lon="1.63248">
        <ele>103.96</ele>
        <time>2013-12-20T10:18:07Z</time>
      </trkpt>
      <trkpt lat="48.80768" lon="1.63249">
        <ele>103.96</ele>
        <time>2013-12-20T10:18:09Z</time>
      </trkpt>
      <trkpt lat="48.80765" lon="1.63255">
        <ele>103.48</ele>
        <time>2013-12-20T10:18:13Z</time>
      </trkpt>
      <trkpt lat="48.80757" lon="1.63276">
        <ele>102.04</ele>
        <time>2013-12-20T10:18:30Z</time>
      </trkpt>
      <trkpt lat="48.80749" lon="1.63294">
        <ele>103</ele>
        <time>2013-12-20T10:18:42Z</time>
      </trkpt>
      <trkpt lat="48.80747" lon="1.63298">
        <ele>103</ele>
        <time>2013-12-20T10:18:51Z</time>
      </trkpt>
      <trkpt lat="48.80744" lon="1.63303">
        <ele>103</ele>
        <time>2013-12-20T10:18:55Z</time>
      </trkpt>
      <trkpt lat="48.80734" lon="1.63318">
        <ele>102.04</ele>
        <time>2013-12-20T10:19:07Z</time>
      </trkpt>
      <trkpt lat="48.80731" lon="1.63321">
        <ele>102.52</ele>
        <time>2013-12-20T10:19:11Z</time>
      </trkpt>
      <trkpt lat="48.80727" lon="1.63325">
        <ele>102.52</ele>
        <time>2013-12-20T10:19:15Z</time>
      </trkpt>
      <trkpt lat="48.80719" lon="1.63335">
        <ele>102.04</ele>
        <time>2013-12-20T10:19:25Z</time>
      </trkpt>
      <trkpt lat="48.80714" lon="1.63339">
        <ele>102.52</ele>
        <time>2013-12-20T10:19:30Z</time>
      </trkpt>
      <trkpt lat="48.80712" lon="1.63339">
        <ele>102.52</ele>
        <time>2013-12-20T10:19:32Z</time>
      </trkpt>
      <trkpt lat="48.80707" lon="1.63332">
        <ele>102.52</ele>
        <time>2013-12-20T10:19:38Z</time>
      </trkpt>
      <trkpt lat="48.80692" lon="1.63315">
        <ele>102.04</ele>
        <time>2013-12-20T10:19:54Z</time>
      </trkpt>
      <trkpt lat="48.80677" lon="1.63298">
        <ele>102.52</ele>
        <time>2013-12-20T10:20:10Z</time>
      </trkpt>
      <trkpt lat="48.80659" lon="1.63278">
        <ele>103.96</ele>
        <time>2013-12-20T10:20:29Z</time>
      </trkpt>
      <trkpt lat="48.80643" lon="1.63259">
        <ele>103.96</ele>
        <time>2013-12-20T10:20:46Z</time>
      </trkpt>
      <trkpt lat="48.80628" lon="1.63241">
        <ele>103</ele>
        <time>2013-12-20T10:21:04Z</time>
      </trkpt>
      <trkpt lat="48.80609" lon="1.63217">
        <ele>104.92</ele>
        <time>2013-12-20T10:21:24Z</time>
      </trkpt>
      <trkpt lat="48.80588" lon="1.63191">
        <ele>103.96</ele>
        <time>2013-12-20T10:21:45Z</time>
      </trkpt>
      <trkpt lat="48.80575" lon="1.63172">
        <ele>103.48</ele>
        <time>2013-12-20T10:22:02Z</time>
      </trkpt>
      <trkpt lat="48.80567" lon="1.63164">
        <ele>102.04</ele>
        <time>2013-12-20T10:22:14Z</time>
      </trkpt>
      <trkpt lat="48.80563" lon="1.63157">
        <ele>101.08</ele>
        <time>2013-12-20T10:22:26Z</time>
      </trkpt>
      <trkpt lat="48.80546" lon="1.6313">
        <ele>97.71</ele>
        <time>2013-12-20T10:22:46Z</time>
      </trkpt>
      <trkpt lat="48.80528" lon="1.63105">
        <ele>96.75</ele>
        <time>2013-12-20T10:23:02Z</time>
      </trkpt>
      <trkpt lat="48.8051" lon="1.63084">
        <ele>98.19</ele>
        <time>2013-12-20T10:23:17Z</time>
      </trkpt>
      <trkpt lat="48.80497" lon="1.63066">
        <ele>100.11</ele>
        <time>2013-12-20T10:23:32Z</time>
      </trkpt>
      <trkpt lat="48.80489" lon="1.63053">
        <ele>99.15</ele>
        <time>2013-12-20T10:23:49Z</time>
      </trkpt>
      <trkpt lat="48.8047" lon="1.63027">
        <ele>97.71</ele>
        <time>2013-12-20T10:24:09Z</time>
      </trkpt>
      <trkpt lat="48.80456" lon="1.63006">
        <ele>99.15</ele>
        <time>2013-12-20T10:24:25Z</time>
      </trkpt>
      <trkpt lat="48.80449" lon="1.62995">
        <ele>98.67</ele>
        <time>2013-12-20T10:24:39Z</time>
      </trkpt>
      <trkpt lat="48.80428" lon="1.62967">
        <ele>99.15</ele>
        <time>2013-12-20T10:24:57Z</time>
      </trkpt>
      <trkpt lat="48.80419" lon="1.62952">
        <ele>100.6</ele>
        <time>2013-12-20T10:25:11Z</time>
      </trkpt>
      <trkpt lat="48.80406" lon="1.62932">
        <ele>99.63</ele>
        <time>2013-12-20T10:25:25Z</time>
      </trkpt>
      <trkpt lat="48.80395" lon="1.62911">
        <ele>100.6</ele>
        <time>2013-12-20T10:25:41Z</time>
      </trkpt>
      <trkpt lat="48.80382" lon="1.62891">
        <ele>101.08</ele>
        <time>2013-12-20T10:25:56Z</time>
      </trkpt>
      <trkpt lat="48.80375" lon="1.62877">
        <ele>101.08</ele>
        <time>2013-12-20T10:26:07Z</time>
      </trkpt>
      <trkpt lat="48.80366" lon="1.62857">
        <ele>102.04</ele>
        <time>2013-12-20T10:26:22Z</time>
      </trkpt>
      <trkpt lat="48.80355" lon="1.62833">
        <ele>102.04</ele>
        <time>2013-12-20T10:26:37Z</time>
      </trkpt>
      <trkpt lat="48.80346" lon="1.62817">
        <ele>102.04</ele>
        <time>2013-12-20T10:26:50Z</time>
      </trkpt>
      <trkpt lat="48.80337" lon="1.62802">
        <ele>103</ele>
        <time>2013-12-20T10:27:04Z</time>
      </trkpt>
      <trkpt lat="48.80333" lon="1.62793">
        <ele>103</ele>
        <time>2013-12-20T10:27:10Z</time>
      </trkpt>
      <trkpt lat="48.80326" lon="1.62781">
        <ele>103.48</ele>
        <time>2013-12-20T10:27:19Z</time>
      </trkpt>
      <trkpt lat="48.80317" lon="1.62762">
        <ele>102.52</ele>
        <time>2013-12-20T10:27:35Z</time>
      </trkpt>
      <trkpt lat="48.80305" lon="1.62739">
        <ele>103.48</ele>
        <time>2013-12-20T10:27:52Z</time>
      </trkpt>
      <trkpt lat="48.80293" lon="1.62708">
        <ele>103.48</ele>
        <time>2013-12-20T10:28:07Z</time>
      </trkpt>
      <trkpt lat="48.80291" lon="1.62705">
        <ele>103.48</ele>
        <time>2013-12-20T10:28:10Z</time>
      </trkpt>
      <trkpt lat="48.80289" lon="1.627">
        <ele>103</ele>
        <time>2013-12-20T10:28:14Z</time>
      </trkpt>
      <trkpt lat="48.80277" lon="1.62683">
        <ele>103.48</ele>
        <time>2013-12-20T10:28:32Z</time>
      </trkpt>
      <trkpt lat="48.80277" lon="1.62683">
        <ele>103</ele>
        <time>2013-12-20T10:28:36Z</time>
      </trkpt>
      <trkpt lat="48.80269" lon="1.6267">
        <ele>103</ele>
        <time>2013-12-20T10:28:48Z</time>
      </trkpt>
      <trkpt lat="48.80254" lon="1.62645">
        <ele>103</ele>
        <time>2013-12-20T10:29:05Z</time>
      </trkpt>
      <trkpt lat="48.8024" lon="1.62623">
        <ele>103</ele>
        <time>2013-12-20T10:29:22Z</time>
      </trkpt>
      <trkpt lat="48.80229" lon="1.62607">
        <ele>102.52</ele>
        <time>2013-12-20T10:29:37Z</time>
      </trkpt>
      <trkpt lat="48.80216" lon="1.62589">
        <ele>103</ele>
        <time>2013-12-20T10:29:52Z</time>
      </trkpt>
      <trkpt lat="48.80208" lon="1.62575">
        <ele>104.44</ele>
        <time>2013-12-20T10:30:05Z</time>
      </trkpt>
      <trkpt lat="48.80201" lon="1.62565">
        <ele>104.92</ele>
        <time>2013-12-20T10:30:15Z</time>
      </trkpt>
      <trkpt lat="48.80185" lon="1.62535">
        <ele>105.4</ele>
        <time>2013-12-20T10:30:32Z</time>
      </trkpt>
      <trkpt lat="48.80178" lon="1.6252">
        <ele>104.92</ele>
        <time>2013-12-20T10:30:44Z</time>
      </trkpt>
      <trkpt lat="48.80169" lon="1.62504">
        <ele>103</ele>
        <time>2013-12-20T10:31:01Z</time>
      </trkpt>
      <trkpt lat="48.8016" lon="1.62483">
        <ele>102.52</ele>
        <time>2013-12-20T10:31:16Z</time>
      </trkpt>
      <trkpt lat="48.80155" lon="1.62479">
        <ele>103.96</ele>
        <time>2013-12-20T10:31:29Z</time>
      </trkpt>
      <trkpt lat="48.80147" lon="1.62473">
        <ele>105.4</ele>
        <time>2013-12-20T10:31:40Z</time>
      </trkpt>
      <trkpt lat="48.80136" lon="1.62457">
        <ele>105.88</ele>
        <time>2013-12-20T10:31:45Z</time>
      </trkpt>
      <trkpt lat="48.80126" lon="1.62444">
        <ele>106.84</ele>
        <time>2013-12-20T10:31:49Z</time>
      </trkpt>
      <trkpt lat="48.80106" lon="1.62426">
        <ele>108.29</ele>
        <time>2013-12-20T10:32:04Z</time>
      </trkpt>
      <trkpt lat="48.80097" lon="1.62417">
        <ele>108.29</ele>
        <time>2013-12-20T10:32:15Z</time>
      </trkpt>
      <trkpt lat="48.80087" lon="1.62408">
        <ele>106.84</ele>
        <time>2013-12-20T10:32:28Z</time>
      </trkpt>
      <trkpt lat="48.8007" lon="1.62392">
        <ele>105.88</ele>
        <time>2013-12-20T10:32:45Z</time>
      </trkpt>
      <trkpt lat="48.8005" lon="1.62372">
        <ele>105.4</ele>
        <time>2013-12-20T10:33:04Z</time>
      </trkpt>
      <trkpt lat="48.80032" lon="1.62359">
        <ele>106.36</ele>
        <time>2013-12-20T10:33:22Z</time>
      </trkpt>
      <trkpt lat="48.80022" lon="1.62347">
        <ele>107.81</ele>
        <time>2013-12-20T10:33:33Z</time>
      </trkpt>
      <trkpt lat="48.79996" lon="1.62322">
        <ele>109.25</ele>
        <time>2013-12-20T10:33:56Z</time>
      </trkpt>
      <trkpt lat="48.79975" lon="1.62304">
        <ele>111.65</ele>
        <time>2013-12-20T10:34:15Z</time>
      </trkpt>
      <trkpt lat="48.79956" lon="1.62281">
        <ele>108.29</ele>
        <time>2013-12-20T10:34:36Z</time>
      </trkpt>
      <trkpt lat="48.79947" lon="1.62271">
        <ele>106.84</ele>
        <time>2013-12-20T10:34:47Z</time>
      </trkpt>
      <trkpt lat="48.79926" lon="1.62251">
        <ele>109.73</ele>
        <time>2013-12-20T10:35:05Z</time>
      </trkpt>
      <trkpt lat="48.79904" lon="1.62228">
        <ele>112.13</ele>
        <time>2013-12-20T10:35:25Z</time>
      </trkpt>
      <trkpt lat="48.79891" lon="1.62205">
        <ele>107.81</ele>
        <time>2013-12-20T10:35:42Z</time>
      </trkpt>
      <trkpt lat="48.79868" lon="1.6218">
        <ele>109.25</ele>
        <time>2013-12-20T10:36:03Z</time>
      </trkpt>
      <trkpt lat="48.79851" lon="1.62153">
        <ele>107.81</ele>
        <time>2013-12-20T10:36:23Z</time>
      </trkpt>
      <trkpt lat="48.79845" lon="1.62144">
        <ele>107.81</ele>
        <time>2013-12-20T10:36:37Z</time>
      </trkpt>
      <trkpt lat="48.79834" lon="1.62128">
        <ele>107.32</ele>
        <time>2013-12-20T10:36:51Z</time>
      </trkpt>
      <trkpt lat="48.7982" lon="1.62107">
        <ele>106.84</ele>
        <time>2013-12-20T10:37:08Z</time>
      </trkpt>
      <trkpt lat="48.79805" lon="1.62083">
        <ele>109.25</ele>
        <time>2013-12-20T10:37:26Z</time>
      </trkpt>
      <trkpt lat="48.7979" lon="1.62059">
        <ele>109.25</ele>
        <time>2013-12-20T10:37:43Z</time>
      </trkpt>
      <trkpt lat="48.7978" lon="1.62041">
        <ele>110.21</ele>
        <time>2013-12-20T10:37:58Z</time>
      </trkpt>
      <trkpt lat="48.7977" lon="1.62027">
        <ele>107.81</ele>
        <time>2013-12-20T10:38:10Z</time>
      </trkpt>
      <trkpt lat="48.79751" lon="1.62002">
        <ele>110.21</ele>
        <time>2013-12-20T10:38:29Z</time>
      </trkpt>
      <trkpt lat="48.79735" lon="1.6198">
        <ele>110.69</ele>
        <time>2013-12-20T10:38:47Z</time>
      </trkpt>
      <trkpt lat="48.79731" lon="1.61973">
        <ele>110.69</ele>
        <time>2013-12-20T10:38:52Z</time>
      </trkpt>
      <trkpt lat="48.7972" lon="1.61951">
        <ele>110.21</ele>
        <time>2013-12-20T10:39:09Z</time>
      </trkpt>
      <trkpt lat="48.79715" lon="1.61943">
        <ele>111.65</ele>
        <time>2013-12-20T10:39:22Z</time>
      </trkpt>
      <trkpt lat="48.79716" lon="1.61944">
        <ele>111.17</ele>
        <time>2013-12-20T10:39:26Z</time>
      </trkpt>
      <trkpt lat="48.79725" lon="1.61944">
        <ele>112.61</ele>
        <time>2013-12-20T10:39:38Z</time>
      </trkpt>
      <trkpt lat="48.79736" lon="1.61945">
        <ele>111.65</ele>
        <time>2013-12-20T10:39:49Z</time>
      </trkpt>
      <trkpt lat="48.79744" lon="1.61938">
        <ele>113.57</ele>
        <time>2013-12-20T10:39:56Z</time>
      </trkpt>
      <trkpt lat="48.79756" lon="1.61941">
        <ele>114.53</ele>
        <time>2013-12-20T10:40:07Z</time>
      </trkpt>
      <trkpt lat="48.7976" lon="1.61929">
        <ele>114.53</ele>
        <time>2013-12-20T10:40:14Z</time>
      </trkpt>
      <trkpt lat="48.79746" lon="1.61896">
        <ele>111.65</ele>
        <time>2013-12-20T10:40:32Z</time>
      </trkpt>
      <trkpt lat="48.79731" lon="1.61875">
        <ele>111.65</ele>
        <time>2013-12-20T10:40:49Z</time>
      </trkpt>
      <trkpt lat="48.79717" lon="1.61847">
        <ele>110.69</ele>
        <time>2013-12-20T10:41:08Z</time>
      </trkpt>
      <trkpt lat="48.79703" lon="1.61816">
        <ele>107.81</ele>
        <time>2013-12-20T10:41:28Z</time>
      </trkpt>
      <trkpt lat="48.79694" lon="1.61789">
        <ele>106.84</ele>
        <time>2013-12-20T10:41:44Z</time>
      </trkpt>
      <trkpt lat="48.79681" lon="1.61754">
        <ele>107.32</ele>
        <time>2013-12-20T10:42:05Z</time>
      </trkpt>
      <trkpt lat="48.79673" lon="1.61727">
        <ele>108.29</ele>
        <time>2013-12-20T10:42:23Z</time>
      </trkpt>
      <trkpt lat="48.79663" lon="1.61697">
        <ele>107.81</ele>
        <time>2013-12-20T10:42:43Z</time>
      </trkpt>
      <trkpt lat="48.79654" lon="1.61669">
        <ele>106.36</ele>
        <time>2013-12-20T10:43:01Z</time>
      </trkpt>
      <trkpt lat="48.79646" lon="1.6164">
        <ele>107.32</ele>
        <time>2013-12-20T10:43:18Z</time>
      </trkpt>
      <trkpt lat="48.79639" lon="1.61605">
        <ele>108.29</ele>
        <time>2013-12-20T10:43:39Z</time>
      </trkpt>
      <trkpt lat="48.79629" lon="1.6157">
        <ele>104.44</ele>
        <time>2013-12-20T10:43:57Z</time>
      </trkpt>
      <trkpt lat="48.79622" lon="1.61533">
        <ele>101.08</ele>
        <time>2013-12-20T10:44:17Z</time>
      </trkpt>
      <trkpt lat="48.79614" lon="1.61499">
        <ele>103</ele>
        <time>2013-12-20T10:44:36Z</time>
      </trkpt>
      <trkpt lat="48.79606" lon="1.61467">
        <ele>102.04</ele>
        <time>2013-12-20T10:44:53Z</time>
      </trkpt>
      <trkpt lat="48.796" lon="1.61429">
        <ele>100.6</ele>
        <time>2013-12-20T10:45:14Z</time>
      </trkpt>
      <trkpt lat="48.79598" lon="1.61403">
        <ele>99.15</ele>
        <time>2013-12-20T10:45:31Z</time>
      </trkpt>
      <trkpt lat="48.79596" lon="1.61383">
        <ele>98.19</ele>
        <time>2013-12-20T10:45:46Z</time>
      </trkpt>
      <trkpt lat="48.79594" lon="1.61344">
        <ele>98.67</ele>
        <time>2013-12-20T10:46:08Z</time>
      </trkpt>
      <trkpt lat="48.79591" lon="1.61309">
        <ele>96.75</ele>
        <time>2013-12-20T10:46:27Z</time>
      </trkpt>
      <trkpt lat="48.79588" lon="1.61274">
        <ele>94.35</ele>
        <time>2013-12-20T10:46:47Z</time>
      </trkpt>
      <trkpt lat="48.79586" lon="1.61233">
        <ele>94.83</ele>
        <time>2013-12-20T10:47:09Z</time>
      </trkpt>
      <trkpt lat="48.79584" lon="1.61204">
        <ele>94.83</ele>
        <time>2013-12-20T10:47:26Z</time>
      </trkpt>
      <trkpt lat="48.79583" lon="1.61176">
        <ele>93.87</ele>
        <time>2013-12-20T10:47:41Z</time>
      </trkpt>
      <trkpt lat="48.79586" lon="1.61145">
        <ele>94.35</ele>
        <time>2013-12-20T10:47:58Z</time>
      </trkpt>
      <trkpt lat="48.79586" lon="1.6111">
        <ele>92.9</ele>
        <time>2013-12-20T10:48:18Z</time>
      </trkpt>
      <trkpt lat="48.79586" lon="1.61075">
        <ele>93.39</ele>
        <time>2013-12-20T10:48:36Z</time>
      </trkpt>
      <trkpt lat="48.7959" lon="1.61043">
        <ele>95.79</ele>
        <time>2013-12-20T10:48:54Z</time>
      </trkpt>
      <trkpt lat="48.7959" lon="1.61013">
        <ele>90.98</ele>
        <time>2013-12-20T10:49:11Z</time>
      </trkpt>
      <trkpt lat="48.79591" lon="1.60976">
        <ele>90.02</ele>
        <time>2013-12-20T10:49:31Z</time>
      </trkpt>
      <trkpt lat="48.79593" lon="1.60939">
        <ele>90.5</ele>
        <time>2013-12-20T10:49:51Z</time>
      </trkpt>
      <trkpt lat="48.79598" lon="1.60905">
        <ele>93.39</ele>
        <time>2013-12-20T10:50:09Z</time>
      </trkpt>
      <trkpt lat="48.79607" lon="1.60868">
        <ele>95.79</ele>
        <time>2013-12-20T10:50:30Z</time>
      </trkpt>
      <trkpt lat="48.79611" lon="1.60843">
        <ele>95.79</ele>
        <time>2013-12-20T10:50:45Z</time>
      </trkpt>
      <trkpt lat="48.79616" lon="1.60809">
        <ele>97.23</ele>
        <time>2013-12-20T10:51:04Z</time>
      </trkpt>
      <trkpt lat="48.79622" lon="1.60776">
        <ele>96.75</ele>
        <time>2013-12-20T10:51:23Z</time>
      </trkpt>
      <trkpt lat="48.79626" lon="1.60741">
        <ele>99.15</ele>
        <time>2013-12-20T10:51:42Z</time>
      </trkpt>
      <trkpt lat="48.79628" lon="1.6071">
        <ele>100.11</ele>
        <time>2013-12-20T10:51:59Z</time>
      </trkpt>
      <trkpt lat="48.79626" lon="1.60684">
        <ele>98.19</ele>
        <time>2013-12-20T10:52:14Z</time>
      </trkpt>
      <trkpt lat="48.79628" lon="1.60649">
        <ele>100.11</ele>
        <time>2013-12-20T10:52:33Z</time>
      </trkpt>
      <trkpt lat="48.79628" lon="1.60644">
        <ele>100.6</ele>
        <time>2013-12-20T10:52:36Z</time>
      </trkpt>
      <trkpt lat="48.79632" lon="1.60609">
        <ele>100.11</ele>
        <time>2013-12-20T10:52:56Z</time>
      </trkpt>
      <trkpt lat="48.79634" lon="1.60562">
        <ele>103</ele>
        <time>2013-12-20T10:53:21Z</time>
      </trkpt>
      <trkpt lat="48.79637" lon="1.60526">
        <ele>103.96</ele>
        <time>2013-12-20T10:53:41Z</time>
      </trkpt>
      <trkpt lat="48.79639" lon="1.60494">
        <ele>104.92</ele>
        <time>2013-12-20T10:54:01Z</time>
      </trkpt>
      <trkpt lat="48.79641" lon="1.60466">
        <ele>103.96</ele>
        <time>2013-12-20T10:54:18Z</time>
      </trkpt>
      <trkpt lat="48.79644" lon="1.60431">
        <ele>104.44</ele>
        <time>2013-12-20T10:54:38Z</time>
      </trkpt>
      <trkpt lat="48.79646" lon="1.60395">
        <ele>103.48</ele>
        <time>2013-12-20T10:54:58Z</time>
      </trkpt>
      <trkpt lat="48.79648" lon="1.60364">
        <ele>103.48</ele>
        <time>2013-12-20T10:55:15Z</time>
      </trkpt>
      <trkpt lat="48.79651" lon="1.6032">
        <ele>103.48</ele>
        <time>2013-12-20T10:55:38Z</time>
      </trkpt>
      <trkpt lat="48.79651" lon="1.60289">
        <ele>103.96</ele>
        <time>2013-12-20T10:55:55Z</time>
      </trkpt>
      <trkpt lat="48.79653" lon="1.60246">
        <ele>103.96</ele>
        <time>2013-12-20T10:56:18Z</time>
      </trkpt>
      <trkpt lat="48.79656" lon="1.60208">
        <ele>104.92</ele>
        <time>2013-12-20T10:56:37Z</time>
      </trkpt>
      <trkpt lat="48.79657" lon="1.60174">
        <ele>103.96</ele>
        <time>2013-12-20T10:56:55Z</time>
      </trkpt>
      <trkpt lat="48.7966" lon="1.60146">
        <ele>103.96</ele>
        <time>2013-12-20T10:57:10Z</time>
      </trkpt>
      <trkpt lat="48.7966" lon="1.60144">
        <ele>103.96</ele>
        <time>2013-12-20T10:57:11Z</time>
      </trkpt>
      <trkpt lat="48.79661" lon="1.60129">
        <ele>103.48</ele>
        <time>2013-12-20T10:57:19Z</time>
      </trkpt>
      <trkpt lat="48.79659" lon="1.60126">
        <ele>103.96</ele>
        <time>2013-12-20T10:57:29Z</time>
      </trkpt>
      <trkpt lat="48.79658" lon="1.60113">
        <ele>104.92</ele>
        <time>2013-12-20T10:57:37Z</time>
      </trkpt>
      <trkpt lat="48.79658" lon="1.60105">
        <ele>104.92</ele>
        <time>2013-12-20T10:57:42Z</time>
      </trkpt>
      <trkpt lat="48.79665" lon="1.60097">
        <ele>104.92</ele>
        <time>2013-12-20T10:57:48Z</time>
      </trkpt>
      <trkpt lat="48.79665" lon="1.60057">
        <ele>104.92</ele>
        <time>2013-12-20T10:58:08Z</time>
      </trkpt>
      <trkpt lat="48.79665" lon="1.60024">
        <ele>103</ele>
        <time>2013-12-20T10:58:25Z</time>
      </trkpt>
      <trkpt lat="48.79669" lon="1.59996">
        <ele>96.75</ele>
        <time>2013-12-20T10:58:41Z</time>
      </trkpt>
      <trkpt lat="48.79671" lon="1.59963">
        <ele>91.94</ele>
        <time>2013-12-20T10:59:00Z</time>
      </trkpt>
      <trkpt lat="48.79673" lon="1.59949">
        <ele>86.18</ele>
        <time>2013-12-20T10:59:11Z</time>
      </trkpt>
      <trkpt lat="48.7967" lon="1.59937">
        <ele>88.58</ele>
        <time>2013-12-20T10:59:31Z</time>
      </trkpt>
      <trkpt lat="48.7967" lon="1.59937">
        <ele>88.58</ele>
        <time>2013-12-20T10:59:32Z</time>
      </trkpt>
      <trkpt lat="48.79666" lon="1.59937">
        <ele>89.06</ele>
        <time>2013-12-20T10:59:36Z</time>
      </trkpt>
      <trkpt lat="48.7966" lon="1.59933">
        <ele>90.98</ele>
        <time>2013-12-20T10:59:41Z</time>
      </trkpt>
      <trkpt lat="48.79651" lon="1.59926">
        <ele>92.42</ele>
        <time>2013-12-20T10:59:48Z</time>
      </trkpt>
      <trkpt lat="48.79639" lon="1.59926">
        <ele>94.35</ele>
        <time>2013-12-20T10:59:56Z</time>
      </trkpt>
      <trkpt lat="48.79635" lon="1.59929">
        <ele>96.27</ele>
        <time>2013-12-20T11:00:02Z</time>
      </trkpt>
      <trkpt lat="48.79632" lon="1.59935">
        <ele>96.27</ele>
        <time>2013-12-20T11:00:06Z</time>
      </trkpt>
      <trkpt lat="48.79618" lon="1.59969">
        <ele>92.42</ele>
        <time>2013-12-20T11:00:28Z</time>
      </trkpt>
      <trkpt lat="48.79615" lon="1.5997">
        <ele>92.9</ele>
        <time>2013-12-20T11:00:30Z</time>
      </trkpt>
      <trkpt lat="48.79593" lon="1.60002">
        <ele>96.27</ele>
        <time>2013-12-20T11:00:53Z</time>
      </trkpt>
      <trkpt lat="48.79576" lon="1.6003">
        <ele>100.11</ele>
        <time>2013-12-20T11:01:11Z</time>
      </trkpt>
      <trkpt lat="48.79569" lon="1.6005">
        <ele>99.15</ele>
        <time>2013-12-20T11:01:23Z</time>
      </trkpt>
      <trkpt lat="48.79554" lon="1.60076">
        <ele>97.71</ele>
        <time>2013-12-20T11:01:42Z</time>
      </trkpt>
      <trkpt lat="48.7954" lon="1.60093">
        <ele>95.31</ele>
        <time>2013-12-20T11:01:58Z</time>
      </trkpt>
      <trkpt lat="48.79525" lon="1.60106">
        <ele>90.5</ele>
        <time>2013-12-20T11:02:13Z</time>
      </trkpt>
      <trkpt lat="48.79524" lon="1.60108">
        <ele>90.5</ele>
        <time>2013-12-20T11:02:14Z</time>
      </trkpt>
      <trkpt lat="48.79521" lon="1.60113">
        <ele>89.54</ele>
        <time>2013-12-20T11:02:18Z</time>
      </trkpt>
      <trkpt lat="48.79507" lon="1.60125">
        <ele>90.5</ele>
        <time>2013-12-20T11:02:31Z</time>
      </trkpt>
      <trkpt lat="48.79494" lon="1.60139">
        <ele>90.02</ele>
        <time>2013-12-20T11:02:45Z</time>
      </trkpt>
      <trkpt lat="48.79492" lon="1.60142">
        <ele>90.02</ele>
        <time>2013-12-20T11:02:47Z</time>
      </trkpt>
      <trkpt lat="48.79481" lon="1.60155">
        <ele>88.58</ele>
        <time>2013-12-20T11:02:59Z</time>
      </trkpt>
      <trkpt lat="48.79465" lon="1.60169">
        <ele>84.73</ele>
        <time>2013-12-20T11:03:14Z</time>
      </trkpt>
      <trkpt lat="48.79451" lon="1.60176">
        <ele>83.29</ele>
        <time>2013-12-20T11:03:27Z</time>
      </trkpt>
      <trkpt lat="48.79445" lon="1.60192">
        <ele>83.77</ele>
        <time>2013-12-20T11:03:37Z</time>
      </trkpt>
      <trkpt lat="48.79434" lon="1.60205">
        <ele>87.14</ele>
        <time>2013-12-20T11:03:51Z</time>
      </trkpt>
      <trkpt lat="48.79433" lon="1.60235">
        <ele>81.37</ele>
        <time>2013-12-20T11:04:08Z</time>
      </trkpt>
      <trkpt lat="48.79426" lon="1.60259">
        <ele>77.04</ele>
        <time>2013-12-20T11:04:23Z</time>
      </trkpt>
      <trkpt lat="48.79408" lon="1.60257">
        <ele>78</ele>
        <time>2013-12-20T11:04:37Z</time>
      </trkpt>
      <trkpt lat="48.79391" lon="1.60254">
        <ele>79.45</ele>
        <time>2013-12-20T11:04:52Z</time>
      </trkpt>
      <trkpt lat="48.79384" lon="1.60256">
        <ele>80.41</ele>
        <time>2013-12-20T11:04:58Z</time>
      </trkpt>
      <trkpt lat="48.79372" lon="1.60279">
        <ele>82.81</ele>
        <time>2013-12-20T11:05:12Z</time>
      </trkpt>
      <trkpt lat="48.79368" lon="1.60289">
        <ele>83.77</ele>
        <time>2013-12-20T11:05:17Z</time>
      </trkpt>
      <trkpt lat="48.79367" lon="1.60293">
        <ele>83.77</ele>
        <time>2013-12-20T11:05:19Z</time>
      </trkpt>
      <trkpt lat="48.79367" lon="1.60302">
        <ele>83.29</ele>
        <time>2013-12-20T11:05:24Z</time>
      </trkpt>
      <trkpt lat="48.79364" lon="1.60333">
        <ele>81.85</ele>
        <time>2013-12-20T11:05:42Z</time>
      </trkpt>
      <trkpt lat="48.7936" lon="1.60365">
        <ele>82.81</ele>
        <time>2013-12-20T11:05:58Z</time>
      </trkpt>
      <trkpt lat="48.7936" lon="1.60394">
        <ele>87.62</ele>
        <time>2013-12-20T11:06:14Z</time>
      </trkpt>
      <trkpt lat="48.79358" lon="1.60423">
        <ele>90.98</ele>
        <time>2013-12-20T11:06:30Z</time>
      </trkpt>
      <trkpt lat="48.79355" lon="1.60458">
        <ele>94.35</ele>
        <time>2013-12-20T11:06:49Z</time>
      </trkpt>
      <trkpt lat="48.79354" lon="1.60493">
        <ele>97.71</ele>
        <time>2013-12-20T11:07:07Z</time>
      </trkpt>
      <trkpt lat="48.79346" lon="1.60522">
        <ele>95.79</ele>
        <time>2013-12-20T11:07:25Z</time>
      </trkpt>
      <trkpt lat="48.79339" lon="1.60525">
        <ele>92.9</ele>
        <time>2013-12-20T11:07:38Z</time>
      </trkpt>
      <trkpt lat="48.79339" lon="1.6055">
        <ele>90.98</ele>
        <time>2013-12-20T11:07:52Z</time>
      </trkpt>
      <trkpt lat="48.79339" lon="1.60553">
        <ele>90.98</ele>
        <time>2013-12-20T11:07:54Z</time>
      </trkpt>
      <trkpt lat="48.7934" lon="1.60581">
        <ele>92.42</ele>
        <time>2013-12-20T11:08:10Z</time>
      </trkpt>
      <trkpt lat="48.7934" lon="1.60585">
        <ele>92.42</ele>
        <time>2013-12-20T11:08:12Z</time>
      </trkpt>
      <trkpt lat="48.7934" lon="1.60595">
        <ele>92.9</ele>
        <time>2013-12-20T11:08:17Z</time>
      </trkpt>
      <trkpt lat="48.79332" lon="1.60623">
        <ele>90.98</ele>
        <time>2013-12-20T11:08:31Z</time>
      </trkpt>
      <trkpt lat="48.79328" lon="1.60645">
        <ele>87.14</ele>
        <time>2013-12-20T11:08:44Z</time>
      </trkpt>
      <trkpt lat="48.7932" lon="1.60676">
        <ele>86.66</ele>
        <time>2013-12-20T11:09:01Z</time>
      </trkpt>
      <trkpt lat="48.79315" lon="1.60685">
        <ele>86.66</ele>
        <time>2013-12-20T11:09:07Z</time>
      </trkpt>
      <trkpt lat="48.79312" lon="1.60692">
        <ele>86.18</ele>
        <time>2013-12-20T11:09:11Z</time>
      </trkpt>
      <trkpt lat="48.79311" lon="1.60696">
        <ele>86.18</ele>
        <time>2013-12-20T11:09:13Z</time>
      </trkpt>
      <trkpt lat="48.79304" lon="1.60721">
        <ele>86.18</ele>
        <time>2013-12-20T11:09:29Z</time>
      </trkpt>
      <trkpt lat="48.79304" lon="1.60735">
        <ele>85.69</ele>
        <time>2013-12-20T11:09:41Z</time>
      </trkpt>
      <trkpt lat="48.79304" lon="1.60737">
        <ele>86.18</ele>
        <time>2013-12-20T11:10:04Z</time>
      </trkpt>
      <trkpt lat="48.79305" lon="1.6074">
        <ele>86.66</ele>
        <time>2013-12-20T11:10:33Z</time>
      </trkpt>
      <trkpt lat="48.79304" lon="1.60741">
        <ele>88.58</ele>
        <time>2013-12-20T11:10:55Z</time>
      </trkpt>
      <trkpt lat="48.79304" lon="1.60742">
        <ele>89.54</ele>
        <time>2013-12-20T11:11:24Z</time>
      </trkpt>
      <trkpt lat="48.79303" lon="1.60744">
        <ele>88.58</ele>
        <time>2013-12-20T11:11:59Z</time>
      </trkpt>
      <trkpt lat="48.79304" lon="1.60746">
        <ele>88.58</ele>
        <time>2013-12-20T11:12:25Z</time>
      </trkpt>
      <trkpt lat="48.79303" lon="1.60748">
        <ele>90.02</ele>
        <time>2013-12-20T11:13:01Z</time>
      </trkpt>
      <trkpt lat="48.79304" lon="1.60749">
        <ele>90.02</ele>
        <time>2013-12-20T11:13:38Z</time>
      </trkpt>
      <trkpt lat="48.79304" lon="1.60749">
        <ele>89.54</ele>
        <time>2013-12-20T11:14:14Z</time>
      </trkpt>
      <trkpt lat="48.79303" lon="1.60749">
        <ele>89.54</ele>
        <time>2013-12-20T11:14:54Z</time>
      </trkpt>
      <trkpt lat="48.79303" lon="1.60749">
        <ele>89.54</ele>
        <time>2013-12-20T11:15:35Z</time>
      </trkpt>
      <trkpt lat="48.79303" lon="1.60749">
        <ele>90.02</ele>
        <time>2013-12-20T11:16:13Z</time>
      </trkpt>
      <trkpt lat="48.79304" lon="1.6075">
        <ele>90.98</ele>
        <time>2013-12-20T11:16:47Z</time>
      </trkpt>
      <trkpt lat="48.79303" lon="1.6075">
        <ele>91.46</ele>
        <time>2013-12-20T11:17:20Z</time>
      </trkpt>
      <trkpt lat="48.79303" lon="1.60752">
        <ele>91.46</ele>
        <time>2013-12-20T11:18:02Z</time>
      </trkpt>
      <trkpt lat="48.79302" lon="1.60751">
        <ele>91.46</ele>
        <time>2013-12-20T11:18:38Z</time>
      </trkpt>
      <trkpt lat="48.79301" lon="1.60752">
        <ele>91.46</ele>
        <time>2013-12-20T11:19:14Z</time>
      </trkpt>
      <trkpt lat="48.79301" lon="1.60752">
        <ele>90.98</ele>
        <time>2013-12-20T11:19:47Z</time>
      </trkpt>
      <trkpt lat="48.79301" lon="1.60753">
        <ele>90.5</ele>
        <time>2013-12-20T11:20:19Z</time>
      </trkpt>
      <trkpt lat="48.793" lon="1.6075">
        <ele>90.98</ele>
        <time>2013-12-20T11:20:35Z</time>
      </trkpt>
      <trkpt lat="48.79299" lon="1.60745">
        <ele>91.94</ele>
        <time>2013-12-20T11:21:09Z</time>
      </trkpt>
      <trkpt lat="48.79298" lon="1.6074">
        <ele>91.46</ele>
        <time>2013-12-20T11:21:40Z</time>
      </trkpt>
      <trkpt lat="48.793" lon="1.60738">
        <ele>91.94</ele>
        <time>2013-12-20T11:22:17Z</time>
      </trkpt>
      <trkpt lat="48.79301" lon="1.60738">
        <ele>91.46</ele>
        <time>2013-12-20T11:22:54Z</time>
      </trkpt>
      <trkpt lat="48.79303" lon="1.60738">
        <ele>90.5</ele>
        <time>2013-12-20T11:23:33Z</time>
      </trkpt>
      <trkpt lat="48.79303" lon="1.60738">
        <ele>90.02</ele>
        <time>2013-12-20T11:24:10Z</time>
      </trkpt>
      <trkpt lat="48.79304" lon="1.60737">
        <ele>88.58</ele>
        <time>2013-12-20T11:24:48Z</time>
      </trkpt>
      <trkpt lat="48.79303" lon="1.60739">
        <ele>87.62</ele>
        <time>2013-12-20T11:25:22Z</time>
      </trkpt>
      <trkpt lat="48.79303" lon="1.60739">
        <ele>88.1</ele>
        <time>2013-12-20T11:26:02Z</time>
      </trkpt>
      <trkpt lat="48.79303" lon="1.60738">
        <ele>87.62</ele>
        <time>2013-12-20T11:26:32Z</time>
      </trkpt>
      <trkpt lat="48.79303" lon="1.60738">
        <ele>86.66</ele>
        <time>2013-12-20T11:27:10Z</time>
      </trkpt>
      <trkpt lat="48.79303" lon="1.60737">
        <ele>86.66</ele>
        <time>2013-12-20T11:27:48Z</time>
      </trkpt>
      <trkpt lat="48.79303" lon="1.6074">
        <ele>86.66</ele>
        <time>2013-12-20T11:28:20Z</time>
      </trkpt>
      <trkpt lat="48.79304" lon="1.60741">
        <ele>85.69</ele>
        <time>2013-12-20T11:28:50Z</time>
      </trkpt>
      <trkpt lat="48.79305" lon="1.60741">
        <ele>86.66</ele>
        <time>2013-12-20T11:29:15Z</time>
      </trkpt>
      <trkpt lat="48.79306" lon="1.60742">
        <ele>88.1</ele>
        <time>2013-12-20T11:29:45Z</time>
      </trkpt>
      <trkpt lat="48.79305" lon="1.60741">
        <ele>88.58</ele>
        <time>2013-12-20T11:30:06Z</time>
      </trkpt>
      <trkpt lat="48.79306" lon="1.60743">
        <ele>88.58</ele>
        <time>2013-12-20T11:30:46Z</time>
      </trkpt>
      <trkpt lat="48.79305" lon="1.60742">
        <ele>89.06</ele>
        <time>2013-12-20T11:31:17Z</time>
      </trkpt>
      <trkpt lat="48.79307" lon="1.60741">
        <ele>89.54</ele>
        <time>2013-12-20T11:31:53Z</time>
      </trkpt>
      <trkpt lat="48.79306" lon="1.60741">
        <ele>89.54</ele>
        <time>2013-12-20T11:32:29Z</time>
      </trkpt>
      <trkpt lat="48.79307" lon="1.60742">
        <ele>88.58</ele>
        <time>2013-12-20T11:33:06Z</time>
      </trkpt>
      <trkpt lat="48.79305" lon="1.60743">
        <ele>88.58</ele>
        <time>2013-12-20T11:33:43Z</time>
      </trkpt>
      <trkpt lat="48.79305" lon="1.60743">
        <ele>88.58</ele>
        <time>2013-12-20T11:34:01Z</time>
      </trkpt>
      <trkpt lat="48.79306" lon="1.6074">
        <ele>88.58</ele>
        <time>2013-12-20T11:34:14Z</time>
      </trkpt>
      <trkpt lat="48.79307" lon="1.60737">
        <ele>88.1</ele>
        <time>2013-12-20T11:34:35Z</time>
      </trkpt>
      <trkpt lat="48.7931" lon="1.60728">
        <ele>87.62</ele>
        <time>2013-12-20T11:34:45Z</time>
      </trkpt>
      <trkpt lat="48.79315" lon="1.60716">
        <ele>87.62</ele>
        <time>2013-12-20T11:34:58Z</time>
      </trkpt>
      <trkpt lat="48.79322" lon="1.60702">
        <ele>87.62</ele>
        <time>2013-12-20T11:35:10Z</time>
      </trkpt>
      <trkpt lat="48.79329" lon="1.60687">
        <ele>87.62</ele>
        <time>2013-12-20T11:35:25Z</time>
      </trkpt>
      <trkpt lat="48.79335" lon="1.6067">
        <ele>86.66</ele>
        <time>2013-12-20T11:35:41Z</time>
      </trkpt>
      <trkpt lat="48.79339" lon="1.60643">
        <ele>84.73</ele>
        <time>2013-12-20T11:35:59Z</time>
      </trkpt>
      <trkpt lat="48.79342" lon="1.60622">
        <ele>84.73</ele>
        <time>2013-12-20T11:36:13Z</time>
      </trkpt>
      <trkpt lat="48.79345" lon="1.6059">
        <ele>89.06</ele>
        <time>2013-12-20T11:36:29Z</time>
      </trkpt>
      <trkpt lat="48.79347" lon="1.60564">
        <ele>88.58</ele>
        <time>2013-12-20T11:36:46Z</time>
      </trkpt>
      <trkpt lat="48.79346" lon="1.6054">
        <ele>86.66</ele>
        <time>2013-12-20T11:37:02Z</time>
      </trkpt>
      <trkpt lat="48.79346" lon="1.6052">
        <ele>89.54</ele>
        <time>2013-12-20T11:37:16Z</time>
      </trkpt>
      <trkpt lat="48.79345" lon="1.60519">
        <ele>90.5</ele>
        <time>2013-12-20T11:37:41Z</time>
      </trkpt>
      <trkpt lat="48.79345" lon="1.60519">
        <ele>90.5</ele>
        <time>2013-12-20T11:37:48Z</time>
      </trkpt>
      <trkpt lat="48.79348" lon="1.6052">
        <ele>90.02</ele>
        <time>2013-12-20T11:37:52Z</time>
      </trkpt>
      <trkpt lat="48.79353" lon="1.60519">
        <ele>90.02</ele>
        <time>2013-12-20T11:37:57Z</time>
      </trkpt>
      <trkpt lat="48.79358" lon="1.60513">
        <ele>88.58</ele>
        <time>2013-12-20T11:38:04Z</time>
      </trkpt>
      <trkpt lat="48.79363" lon="1.60485">
        <ele>86.66</ele>
        <time>2013-12-20T11:38:23Z</time>
      </trkpt>
      <trkpt lat="48.79366" lon="1.60457">
        <ele>86.18</ele>
        <time>2013-12-20T11:38:40Z</time>
      </trkpt>
      <trkpt lat="48.79366" lon="1.60424">
        <ele>86.66</ele>
        <time>2013-12-20T11:39:01Z</time>
      </trkpt>
      <trkpt lat="48.79368" lon="1.60391">
        <ele>86.66</ele>
        <time>2013-12-20T11:39:21Z</time>
      </trkpt>
      <trkpt lat="48.7937" lon="1.60363">
        <ele>86.66</ele>
        <time>2013-12-20T11:39:38Z</time>
      </trkpt>
      <trkpt lat="48.79373" lon="1.60329">
        <ele>86.66</ele>
        <time>2013-12-20T11:39:58Z</time>
      </trkpt>
      <trkpt lat="48.79374" lon="1.60304">
        <ele>86.66</ele>
        <time>2013-12-20T11:40:12Z</time>
      </trkpt>
      <trkpt lat="48.79372" lon="1.60298">
        <ele>86.66</ele>
        <time>2013-12-20T11:40:16Z</time>
      </trkpt>
      <trkpt lat="48.7937" lon="1.60275">
        <ele>83.77</ele>
        <time>2013-12-20T11:40:32Z</time>
      </trkpt>
      <trkpt lat="48.79372" lon="1.60257">
        <ele>82.81</ele>
        <time>2013-12-20T11:40:46Z</time>
      </trkpt>
      <trkpt lat="48.79368" lon="1.60243">
        <ele>82.33</ele>
        <time>2013-12-20T11:40:59Z</time>
      </trkpt>
      <trkpt lat="48.79374" lon="1.60227">
        <ele>82.81</ele>
        <time>2013-12-20T11:41:09Z</time>
      </trkpt>
      <trkpt lat="48.79376" lon="1.60185">
        <ele>82.33</ele>
        <time>2013-12-20T11:41:34Z</time>
      </trkpt>
      <trkpt lat="48.79377" lon="1.60152">
        <ele>81.37</ele>
        <time>2013-12-20T11:41:52Z</time>
      </trkpt>
      <trkpt lat="48.79377" lon="1.60144">
        <ele>81.85</ele>
        <time>2013-12-20T11:41:56Z</time>
      </trkpt>
      <trkpt lat="48.79375" lon="1.60126">
        <ele>82.33</ele>
        <time>2013-12-20T11:42:12Z</time>
      </trkpt>
      <trkpt lat="48.79355" lon="1.60115">
        <ele>84.25</ele>
        <time>2013-12-20T11:42:33Z</time>
      </trkpt>
      <trkpt lat="48.79328" lon="1.60099">
        <ele>86.66</ele>
        <time>2013-12-20T11:42:57Z</time>
      </trkpt>
      <trkpt lat="48.79321" lon="1.60091">
        <ele>87.62</ele>
        <time>2013-12-20T11:43:20Z</time>
      </trkpt>
      <trkpt lat="48.79317" lon="1.60093">
        <ele>85.69</ele>
        <time>2013-12-20T11:43:39Z</time>
      </trkpt>
      <trkpt lat="48.79311" lon="1.60089">
        <ele>86.66</ele>
        <time>2013-12-20T11:44:06Z</time>
      </trkpt>
      <trkpt lat="48.79311" lon="1.60091">
        <ele>88.1</ele>
        <time>2013-12-20T11:44:27Z</time>
      </trkpt>
      <trkpt lat="48.79302" lon="1.60085">
        <ele>90.98</ele>
        <time>2013-12-20T11:44:47Z</time>
      </trkpt>
      <trkpt lat="48.7929" lon="1.60079">
        <ele>90.5</ele>
        <time>2013-12-20T11:45:02Z</time>
      </trkpt>
      <trkpt lat="48.79272" lon="1.6007">
        <ele>87.62</ele>
        <time>2013-12-20T11:45:18Z</time>
      </trkpt>
      <trkpt lat="48.79255" lon="1.6006">
        <ele>85.69</ele>
        <time>2013-12-20T11:45:34Z</time>
      </trkpt>
      <trkpt lat="48.79253" lon="1.60058">
        <ele>86.18</ele>
        <time>2013-12-20T11:45:36Z</time>
      </trkpt>
      <trkpt lat="48.79232" lon="1.60045">
        <ele>89.06</ele>
        <time>2013-12-20T11:45:55Z</time>
      </trkpt>
      <trkpt lat="48.7921" lon="1.60035">
        <ele>89.06</ele>
        <time>2013-12-20T11:46:18Z</time>
      </trkpt>
      <trkpt lat="48.79208" lon="1.60035">
        <ele>89.06</ele>
        <time>2013-12-20T11:46:20Z</time>
      </trkpt>
      <trkpt lat="48.79197" lon="1.60038">
        <ele>88.58</ele>
        <time>2013-12-20T11:46:35Z</time>
      </trkpt>
      <trkpt lat="48.79183" lon="1.6003">
        <ele>83.77</ele>
        <time>2013-12-20T11:46:53Z</time>
      </trkpt>
      <trkpt lat="48.79167" lon="1.60031">
        <ele>83.29</ele>
        <time>2013-12-20T11:47:11Z</time>
      </trkpt>
      <trkpt lat="48.7915" lon="1.60032">
        <ele>85.69</ele>
        <time>2013-12-20T11:47:29Z</time>
      </trkpt>
      <trkpt lat="48.79147" lon="1.60033">
        <ele>85.69</ele>
        <time>2013-12-20T11:47:32Z</time>
      </trkpt>
      <trkpt lat="48.79129" lon="1.60049">
        <ele>89.06</ele>
        <time>2013-12-20T11:47:51Z</time>
      </trkpt>
      <trkpt lat="48.79112" lon="1.60057">
        <ele>90.5</ele>
        <time>2013-12-20T11:48:09Z</time>
      </trkpt>
      <trkpt lat="48.791" lon="1.60074">
        <ele>91.46</ele>
        <time>2013-12-20T11:48:25Z</time>
      </trkpt>
      <trkpt lat="48.79084" lon="1.60106">
        <ele>95.79</ele>
        <time>2013-12-20T11:48:45Z</time>
      </trkpt>
      <trkpt lat="48.79077" lon="1.60107">
        <ele>97.23</ele>
        <time>2013-12-20T11:48:52Z</time>
      </trkpt>
      <trkpt lat="48.79073" lon="1.60113">
        <ele>98.19</ele>
        <time>2013-12-20T11:48:58Z</time>
      </trkpt>
      <trkpt lat="48.79059" lon="1.60134">
        <ele>100.11</ele>
        <time>2013-12-20T11:49:14Z</time>
      </trkpt>
      <trkpt lat="48.79039" lon="1.60143">
        <ele>100.6</ele>
        <time>2013-12-20T11:49:31Z</time>
      </trkpt>
      <trkpt lat="48.79024" lon="1.60159">
        <ele>98.19</ele>
        <time>2013-12-20T11:49:47Z</time>
      </trkpt>
      <trkpt lat="48.79006" lon="1.6017">
        <ele>95.31</ele>
        <time>2013-12-20T11:50:06Z</time>
      </trkpt>
      <trkpt lat="48.78989" lon="1.60164">
        <ele>98.67</ele>
        <time>2013-12-20T11:50:22Z</time>
      </trkpt>
      <trkpt lat="48.78968" lon="1.60149">
        <ele>111.17</ele>
        <time>2013-12-20T11:50:35Z</time>
      </trkpt>
      <trkpt lat="48.78955" lon="1.60159">
        <ele>109.25</ele>
        <time>2013-12-20T11:50:49Z</time>
      </trkpt>
      <trkpt lat="48.78946" lon="1.60174">
        <ele>102.52</ele>
        <time>2013-12-20T11:51:04Z</time>
      </trkpt>
      <trkpt lat="48.78936" lon="1.6019">
        <ele>102.52</ele>
        <time>2013-12-20T11:51:19Z</time>
      </trkpt>
      <trkpt lat="48.78933" lon="1.60189">
        <ele>102.52</ele>
        <time>2013-12-20T11:51:22Z</time>
      </trkpt>
      <trkpt lat="48.78918" lon="1.60173">
        <ele>105.4</ele>
        <time>2013-12-20T11:51:37Z</time>
      </trkpt>
      <trkpt lat="48.7891" lon="1.60178">
        <ele>98.67</ele>
        <time>2013-12-20T11:51:51Z</time>
      </trkpt>
      <trkpt lat="48.78901" lon="1.60191">
        <ele>88.58</ele>
        <time>2013-12-20T11:52:04Z</time>
      </trkpt>
      <trkpt lat="48.78899" lon="1.60193">
        <ele>87.14</ele>
        <time>2013-12-20T11:52:06Z</time>
      </trkpt>
      <trkpt lat="48.789" lon="1.60213">
        <ele>82.81</ele>
        <time>2013-12-20T11:52:13Z</time>
      </trkpt>
      <trkpt lat="48.78894" lon="1.6024">
        <ele>78</ele>
        <time>2013-12-20T11:52:27Z</time>
      </trkpt>
      <trkpt lat="48.7888" lon="1.60253">
        <ele>81.37</ele>
        <time>2013-12-20T11:52:41Z</time>
      </trkpt>
      <trkpt lat="48.78872" lon="1.60261">
        <ele>81.85</ele>
        <time>2013-12-20T11:52:51Z</time>
      </trkpt>
      <trkpt lat="48.78863" lon="1.60276">
        <ele>79.45</ele>
        <time>2013-12-20T11:53:04Z</time>
      </trkpt>
      <trkpt lat="48.78855" lon="1.60281">
        <ele>83.29</ele>
        <time>2013-12-20T11:53:18Z</time>
      </trkpt>
      <trkpt lat="48.78846" lon="1.60289">
        <ele>89.54</ele>
        <time>2013-12-20T11:53:32Z</time>
      </trkpt>
      <trkpt lat="48.7884" lon="1.60293">
        <ele>92.42</ele>
        <time>2013-12-20T11:53:38Z</time>
      </trkpt>
      <trkpt lat="48.78823" lon="1.60311">
        <ele>95.31</ele>
        <time>2013-12-20T11:53:54Z</time>
      </trkpt>
      <trkpt lat="48.78811" lon="1.60326">
        <ele>100.11</ele>
        <time>2013-12-20T11:54:07Z</time>
      </trkpt>
      <trkpt lat="48.78798" lon="1.60347">
        <ele>105.88</ele>
        <time>2013-12-20T11:54:21Z</time>
      </trkpt>
      <trkpt lat="48.78786" lon="1.60362">
        <ele>108.77</ele>
        <time>2013-12-20T11:54:34Z</time>
      </trkpt>
      <trkpt lat="48.7878" lon="1.60371">
        <ele>108.29</ele>
        <time>2013-12-20T11:54:47Z</time>
      </trkpt>
      <trkpt lat="48.78768" lon="1.6038">
        <ele>110.21</ele>
        <time>2013-12-20T11:55:01Z</time>
      </trkpt>
      <trkpt lat="48.78757" lon="1.60399">
        <ele>107.32</ele>
        <time>2013-12-20T11:55:16Z</time>
      </trkpt>
      <trkpt lat="48.78746" lon="1.60421">
        <ele>108.77</ele>
        <time>2013-12-20T11:55:33Z</time>
      </trkpt>
      <trkpt lat="48.78736" lon="1.60434">
        <ele>107.32</ele>
        <time>2013-12-20T11:55:46Z</time>
      </trkpt>
      <trkpt lat="48.78732" lon="1.60439">
        <ele>105.88</ele>
        <time>2013-12-20T11:55:51Z</time>
      </trkpt>
      <trkpt lat="48.7872" lon="1.60465">
        <ele>104.92</ele>
        <time>2013-12-20T11:56:06Z</time>
      </trkpt>
      <trkpt lat="48.78719" lon="1.60469">
        <ele>105.4</ele>
        <time>2013-12-20T11:56:08Z</time>
      </trkpt>
      <trkpt lat="48.78709" lon="1.60482">
        <ele>108.77</ele>
        <time>2013-12-20T11:56:17Z</time>
      </trkpt>
      <trkpt lat="48.78708" lon="1.6049">
        <ele>108.29</ele>
        <time>2013-12-20T11:56:25Z</time>
      </trkpt>
      <trkpt lat="48.78705" lon="1.60498">
        <ele>108.29</ele>
        <time>2013-12-20T11:56:30Z</time>
      </trkpt>
      <trkpt lat="48.78696" lon="1.60503">
        <ele>106.36</ele>
        <time>2013-12-20T11:56:40Z</time>
      </trkpt>
      <trkpt lat="48.78695" lon="1.605">
        <ele>104.92</ele>
        <time>2013-12-20T11:56:43Z</time>
      </trkpt>
      <trkpt lat="48.78683" lon="1.60488">
        <ele>99.63</ele>
        <time>2013-12-20T11:56:58Z</time>
      </trkpt>
      <trkpt lat="48.78677" lon="1.60482">
        <ele>99.63</ele>
        <time>2013-12-20T11:57:04Z</time>
      </trkpt>
      <trkpt lat="48.78674" lon="1.60478">
        <ele>98.67</ele>
        <time>2013-12-20T11:57:13Z</time>
      </trkpt>
      <trkpt lat="48.78661" lon="1.60465">
        <ele>99.15</ele>
        <time>2013-12-20T11:57:27Z</time>
      </trkpt>
      <trkpt lat="48.78658" lon="1.60462">
        <ele>98.19</ele>
        <time>2013-12-20T11:57:29Z</time>
      </trkpt>
      <trkpt lat="48.7864" lon="1.60453">
        <ele>98.19</ele>
        <time>2013-12-20T11:57:40Z</time>
      </trkpt>
      <trkpt lat="48.78636" lon="1.6045">
        <ele>98.19</ele>
        <time>2013-12-20T11:57:43Z</time>
      </trkpt>
      <trkpt lat="48.78631" lon="1.60442">
        <ele>96.75</ele>
        <time>2013-12-20T11:57:47Z</time>
      </trkpt>
      <trkpt lat="48.78617" lon="1.60423">
        <ele>93.39</ele>
        <time>2013-12-20T11:58:03Z</time>
      </trkpt>
      <trkpt lat="48.7861" lon="1.60408">
        <ele>92.42</ele>
        <time>2013-12-20T11:58:18Z</time>
      </trkpt>
      <trkpt lat="48.78611" lon="1.604">
        <ele>92.42</ele>
        <time>2013-12-20T11:58:23Z</time>
      </trkpt>
      <trkpt lat="48.78613" lon="1.60385">
        <ele>91.94</ele>
        <time>2013-12-20T11:58:29Z</time>
      </trkpt>
      <trkpt lat="48.7862" lon="1.60357">
        <ele>93.39</ele>
        <time>2013-12-20T11:58:46Z</time>
      </trkpt>
      <trkpt lat="48.78622" lon="1.60341">
        <ele>93.87</ele>
        <time>2013-12-20T11:58:57Z</time>
      </trkpt>
      <trkpt lat="48.78623" lon="1.60314">
        <ele>94.83</ele>
        <time>2013-12-20T11:59:09Z</time>
      </trkpt>
      <trkpt lat="48.78626" lon="1.60308">
        <ele>94.35</ele>
        <time>2013-12-20T11:59:14Z</time>
      </trkpt>
      <trkpt lat="48.7863" lon="1.6029">
        <ele>92.42</ele>
        <time>2013-12-20T11:59:29Z</time>
      </trkpt>
      <trkpt lat="48.78639" lon="1.60263">
        <ele>90.5</ele>
        <time>2013-12-20T11:59:45Z</time>
      </trkpt>
      <trkpt lat="48.78644" lon="1.60254">
        <ele>90.98</ele>
        <time>2013-12-20T11:59:50Z</time>
      </trkpt>
      <trkpt lat="48.7865" lon="1.60244">
        <ele>92.42</ele>
        <time>2013-12-20T11:59:56Z</time>
      </trkpt>
      <trkpt lat="48.78657" lon="1.60219">
        <ele>95.31</ele>
        <time>2013-12-20T12:00:12Z</time>
      </trkpt>
      <trkpt lat="48.78661" lon="1.60208">
        <ele>93.87</ele>
        <time>2013-12-20T12:00:24Z</time>
      </trkpt>
      <trkpt lat="48.78669" lon="1.60193">
        <ele>92.9</ele>
        <time>2013-12-20T12:00:34Z</time>
      </trkpt>
      <trkpt lat="48.78675" lon="1.60175">
        <ele>93.87</ele>
        <time>2013-12-20T12:00:42Z</time>
      </trkpt>
      <trkpt lat="48.78678" lon="1.60174">
        <ele>93.87</ele>
        <time>2013-12-20T12:00:48Z</time>
      </trkpt>
      <trkpt lat="48.78681" lon="1.6017">
        <ele>93.87</ele>
        <time>2013-12-20T12:00:54Z</time>
      </trkpt>
      <trkpt lat="48.78692" lon="1.6016">
        <ele>93.87</ele>
        <time>2013-12-20T12:01:08Z</time>
      </trkpt>
      <trkpt lat="48.78698" lon="1.60147">
        <ele>92.42</ele>
        <time>2013-12-20T12:01:17Z</time>
      </trkpt>
      <trkpt lat="48.78709" lon="1.60133">
        <ele>92.9</ele>
        <time>2013-12-20T12:01:29Z</time>
      </trkpt>
      <trkpt lat="48.78715" lon="1.60123">
        <ele>92.9</ele>
        <time>2013-12-20T12:01:38Z</time>
      </trkpt>
      <trkpt lat="48.78725" lon="1.60109">
        <ele>93.39</ele>
        <time>2013-12-20T12:01:51Z</time>
      </trkpt>
      <trkpt lat="48.78728" lon="1.60106">
        <ele>93.87</ele>
        <time>2013-12-20T12:01:55Z</time>
      </trkpt>
      <trkpt lat="48.78734" lon="1.60095">
        <ele>93.87</ele>
        <time>2013-12-20T12:02:09Z</time>
      </trkpt>
      <trkpt lat="48.78747" lon="1.60074">
        <ele>94.35</ele>
        <time>2013-12-20T12:02:25Z</time>
      </trkpt>
      <trkpt lat="48.78748" lon="1.60069">
        <ele>93.39</ele>
        <time>2013-12-20T12:02:43Z</time>
      </trkpt>
      <trkpt lat="48.78754" lon="1.60058">
        <ele>92.9</ele>
        <time>2013-12-20T12:02:59Z</time>
      </trkpt>
      <trkpt lat="48.78765" lon="1.60044">
        <ele>91.94</ele>
        <time>2013-12-20T12:03:13Z</time>
      </trkpt>
      <trkpt lat="48.78767" lon="1.60041">
        <ele>91.46</ele>
        <time>2013-12-20T12:03:17Z</time>
      </trkpt>
      <trkpt lat="48.78779" lon="1.60026">
        <ele>90.5</ele>
        <time>2013-12-20T12:03:30Z</time>
      </trkpt>
      <trkpt lat="48.78782" lon="1.60021">
        <ele>90.5</ele>
        <time>2013-12-20T12:03:36Z</time>
      </trkpt>
      <trkpt lat="48.78789" lon="1.6">
        <ele>90.98</ele>
        <time>2013-12-20T12:03:45Z</time>
      </trkpt>
      <trkpt lat="48.78793" lon="1.59993">
        <ele>90.5</ele>
        <time>2013-12-20T12:03:50Z</time>
      </trkpt>
      <trkpt lat="48.78803" lon="1.5998">
        <ele>90.98</ele>
        <time>2013-12-20T12:04:04Z</time>
      </trkpt>
      <trkpt lat="48.78808" lon="1.59969">
        <ele>92.42</ele>
        <time>2013-12-20T12:04:13Z</time>
      </trkpt>
      <trkpt lat="48.78811" lon="1.59949">
        <ele>92.9</ele>
        <time>2013-12-20T12:04:23Z</time>
      </trkpt>
      <trkpt lat="48.78812" lon="1.59941">
        <ele>92.9</ele>
        <time>2013-12-20T12:04:31Z</time>
      </trkpt>
      <trkpt lat="48.78812" lon="1.5994">
        <ele>92.9</ele>
        <time>2013-12-20T12:04:37Z</time>
      </trkpt>
      <trkpt lat="48.78808" lon="1.59932">
        <ele>95.31</ele>
        <time>2013-12-20T12:04:49Z</time>
      </trkpt>
      <trkpt lat="48.7881" lon="1.59934">
        <ele>95.79</ele>
        <time>2013-12-20T12:04:54Z</time>
      </trkpt>
      <trkpt lat="48.78819" lon="1.59938">
        <ele>94.83</ele>
        <time>2013-12-20T12:05:04Z</time>
      </trkpt>
      <trkpt lat="48.7882" lon="1.59938">
        <ele>94.83</ele>
        <time>2013-12-20T12:05:16Z</time>
      </trkpt>
      <trkpt lat="48.78823" lon="1.59941">
        <ele>94.35</ele>
        <time>2013-12-20T12:05:23Z</time>
      </trkpt>
      <trkpt lat="48.78827" lon="1.59946">
        <ele>93.87</ele>
        <time>2013-12-20T12:05:32Z</time>
      </trkpt>
      <trkpt lat="48.78833" lon="1.59953">
        <ele>93.39</ele>
        <time>2013-12-20T12:05:43Z</time>
      </trkpt>
      <trkpt lat="48.78837" lon="1.59959">
        <ele>93.87</ele>
        <time>2013-12-20T12:05:53Z</time>
      </trkpt>
      <trkpt lat="48.78839" lon="1.5996">
        <ele>93.87</ele>
        <time>2013-12-20T12:06:01Z</time>
      </trkpt>
      <trkpt lat="48.78841" lon="1.59962">
        <ele>94.83</ele>
        <time>2013-12-20T12:06:12Z</time>
      </trkpt>
      <trkpt lat="48.78848" lon="1.59969">
        <ele>96.27</ele>
        <time>2013-12-20T12:06:24Z</time>
      </trkpt>
      <trkpt lat="48.78852" lon="1.59975">
        <ele>97.23</ele>
        <time>2013-12-20T12:06:34Z</time>
      </trkpt>
      <trkpt lat="48.78855" lon="1.5998">
        <ele>96.75</ele>
        <time>2013-12-20T12:06:40Z</time>
      </trkpt>
      <trkpt lat="48.78858" lon="1.59983">
        <ele>96.27</ele>
        <time>2013-12-20T12:06:51Z</time>
      </trkpt>
      <trkpt lat="48.78864" lon="1.59989">
        <ele>95.31</ele>
        <time>2013-12-20T12:07:03Z</time>
      </trkpt>
      <trkpt lat="48.78865" lon="1.59988">
        <ele>94.83</ele>
        <time>2013-12-20T12:07:05Z</time>
      </trkpt>
      <trkpt lat="48.78867" lon="1.59986">
        <ele>95.31</ele>
        <time>2013-12-20T12:07:08Z</time>
      </trkpt>
      <trkpt lat="48.78868" lon="1.5998">
        <ele>96.27</ele>
        <time>2013-12-20T12:07:12Z</time>
      </trkpt>
      <trkpt lat="48.78871" lon="1.59967">
        <ele>96.27</ele>
        <time>2013-12-20T12:07:21Z</time>
      </trkpt>
      <trkpt lat="48.78874" lon="1.59963">
        <ele>94.83</ele>
        <time>2013-12-20T12:07:26Z</time>
      </trkpt>
      <trkpt lat="48.7888" lon="1.59949">
        <ele>90.98</ele>
        <time>2013-12-20T12:07:37Z</time>
      </trkpt>
      <trkpt lat="48.78881" lon="1.59943">
        <ele>88.58</ele>
        <time>2013-12-20T12:07:41Z</time>
      </trkpt>
      <trkpt lat="48.78881" lon="1.5994">
        <ele>87.14</ele>
        <time>2013-12-20T12:07:43Z</time>
      </trkpt>
      <trkpt lat="48.78889" lon="1.59919">
        <ele>83.77</ele>
        <time>2013-12-20T12:07:57Z</time>
      </trkpt>
      <trkpt lat="48.78894" lon="1.59903">
        <ele>86.66</ele>
        <time>2013-12-20T12:08:08Z</time>
      </trkpt>
      <trkpt lat="48.78892" lon="1.59899">
        <ele>89.54</ele>
        <time>2013-12-20T12:08:21Z</time>
      </trkpt>
      <trkpt lat="48.78895" lon="1.59888">
        <ele>90.5</ele>
        <time>2013-12-20T12:08:32Z</time>
      </trkpt>
      <trkpt lat="48.78909" lon="1.59869">
        <ele>89.54</ele>
        <time>2013-12-20T12:08:45Z</time>
      </trkpt>
      <trkpt lat="48.78915" lon="1.59854">
        <ele>91.94</ele>
        <time>2013-12-20T12:08:57Z</time>
      </trkpt>
      <trkpt lat="48.78926" lon="1.59841">
        <ele>92.42</ele>
        <time>2013-12-20T12:09:09Z</time>
      </trkpt>
      <trkpt lat="48.78928" lon="1.59837">
        <ele>92.9</ele>
        <time>2013-12-20T12:09:13Z</time>
      </trkpt>
      <trkpt lat="48.78937" lon="1.5983">
        <ele>91.94</ele>
        <time>2013-12-20T12:09:19Z</time>
      </trkpt>
      <trkpt lat="48.78947" lon="1.59819">
        <ele>94.83</ele>
        <time>2013-12-20T12:09:33Z</time>
      </trkpt>
      <trkpt lat="48.7895" lon="1.59819">
        <ele>96.27</ele>
        <time>2013-12-20T12:09:37Z</time>
      </trkpt>
      <trkpt lat="48.78952" lon="1.59824">
        <ele>97.71</ele>
        <time>2013-12-20T12:09:47Z</time>
      </trkpt>
      <trkpt lat="48.78955" lon="1.59832">
        <ele>98.67</ele>
        <time>2013-12-20T12:10:01Z</time>
      </trkpt>
      <trkpt lat="48.78956" lon="1.59833">
        <ele>98.67</ele>
        <time>2013-12-20T12:10:02Z</time>
      </trkpt>
      <trkpt lat="48.78958" lon="1.5984">
        <ele>99.63</ele>
        <time>2013-12-20T12:10:06Z</time>
      </trkpt>
      <trkpt lat="48.78954" lon="1.59849">
        <ele>100.6</ele>
        <time>2013-12-20T12:10:16Z</time>
      </trkpt>
      <trkpt lat="48.78945" lon="1.59862">
        <ele>101.56</ele>
        <time>2013-12-20T12:10:27Z</time>
      </trkpt>
      <trkpt lat="48.78943" lon="1.59873">
        <ele>100.6</ele>
        <time>2013-12-20T12:10:32Z</time>
      </trkpt>
      <trkpt lat="48.78941" lon="1.59891">
        <ele>102.52</ele>
        <time>2013-12-20T12:10:46Z</time>
      </trkpt>
      <trkpt lat="48.78941" lon="1.59893">
        <ele>103</ele>
        <time>2013-12-20T12:10:49Z</time>
      </trkpt>
      <trkpt lat="48.78944" lon="1.59904">
        <ele>103.96</ele>
        <time>2013-12-20T12:11:00Z</time>
      </trkpt>
      <trkpt lat="48.78943" lon="1.5991">
        <ele>103.96</ele>
        <time>2013-12-20T12:11:05Z</time>
      </trkpt>
      <trkpt lat="48.78947" lon="1.59916">
        <ele>104.44</ele>
        <time>2013-12-20T12:11:18Z</time>
      </trkpt>
      <trkpt lat="48.78947" lon="1.59916">
        <ele>104.44</ele>
        <time>2013-12-20T12:11:39Z</time>
      </trkpt>
      <trkpt lat="48.78947" lon="1.59922">
        <ele>105.4</ele>
        <time>2013-12-20T12:12:08Z</time>
      </trkpt>
      <trkpt lat="48.78946" lon="1.59923">
        <ele>105.4</ele>
        <time>2013-12-20T12:12:34Z</time>
      </trkpt>
      <trkpt lat="48.7894" lon="1.59933">
        <ele>106.36</ele>
        <time>2013-12-20T12:12:51Z</time>
      </trkpt>
      <trkpt lat="48.78939" lon="1.59952">
        <ele>106.36</ele>
        <time>2013-12-20T12:13:06Z</time>
      </trkpt>
      <trkpt lat="48.78942" lon="1.5996">
        <ele>103</ele>
        <time>2013-12-20T12:13:21Z</time>
      </trkpt>
      <trkpt lat="48.78942" lon="1.59967">
        <ele>102.04</ele>
        <time>2013-12-20T12:13:32Z</time>
      </trkpt>
      <trkpt lat="48.78934" lon="1.59981">
        <ele>99.63</ele>
        <time>2013-12-20T12:13:46Z</time>
      </trkpt>
      <trkpt lat="48.78933" lon="1.59982">
        <ele>99.63</ele>
        <time>2013-12-20T12:13:47Z</time>
      </trkpt>
      <trkpt lat="48.78923" lon="1.59998">
        <ele>100.11</ele>
        <time>2013-12-20T12:14:01Z</time>
      </trkpt>
      <trkpt lat="48.78926" lon="1.60007">
        <ele>99.63</ele>
        <time>2013-12-20T12:14:12Z</time>
      </trkpt>
      <trkpt lat="48.78929" lon="1.60023">
        <ele>100.11</ele>
        <time>2013-12-20T12:14:21Z</time>
      </trkpt>
      <trkpt lat="48.78928" lon="1.60026">
        <ele>100.6</ele>
        <time>2013-12-20T12:14:23Z</time>
      </trkpt>
      <trkpt lat="48.78929" lon="1.60058">
        <ele>103.96</ele>
        <time>2013-12-20T12:14:37Z</time>
      </trkpt>
      <trkpt lat="48.78929" lon="1.60062">
        <ele>104.44</ele>
        <time>2013-12-20T12:14:39Z</time>
      </trkpt>
      <trkpt lat="48.78934" lon="1.60083">
        <ele>102.04</ele>
        <time>2013-12-20T12:14:56Z</time>
      </trkpt>
      <trkpt lat="48.7894" lon="1.60094">
        <ele>100.11</ele>
        <time>2013-12-20T12:15:06Z</time>
      </trkpt>
      <trkpt lat="48.7895" lon="1.60112">
        <ele>101.56</ele>
        <time>2013-12-20T12:15:21Z</time>
      </trkpt>
      <trkpt lat="48.78951" lon="1.60122">
        <ele>103.48</ele>
        <time>2013-12-20T12:15:48Z</time>
      </trkpt>
      <trkpt lat="48.78951" lon="1.60122">
        <ele>103.48</ele>
        <time>2013-12-20T12:16:06Z</time>
      </trkpt>
      <trkpt lat="48.78951" lon="1.60123">
        <ele>103.48</ele>
        <time>2013-12-20T12:16:34Z</time>
      </trkpt>
      <trkpt lat="48.78952" lon="1.60124">
        <ele>103</ele>
        <time>2013-12-20T12:16:52Z</time>
      </trkpt>
      <trkpt lat="48.78952" lon="1.60124">
        <ele>102.52</ele>
        <time>2013-12-20T12:17:12Z</time>
      </trkpt>
      <trkpt lat="48.78952" lon="1.60124">
        <ele>102.04</ele>
        <time>2013-12-20T12:17:35Z</time>
      </trkpt>
      <trkpt lat="48.7895" lon="1.60128">
        <ele>101.08</ele>
        <time>2013-12-20T12:17:54Z</time>
      </trkpt>
      <trkpt lat="48.78943" lon="1.60144">
        <ele>101.08</ele>
        <time>2013-12-20T12:18:18Z</time>
      </trkpt>
      <trkpt lat="48.78944" lon="1.60149">
        <ele>102.04</ele>
        <time>2013-12-20T12:18:33Z</time>
      </trkpt>
      <trkpt lat="48.78928" lon="1.60154">
        <ele>105.88</ele>
        <time>2013-12-20T12:18:54Z</time>
      </trkpt>
      <trkpt lat="48.78932" lon="1.60164">
        <ele>103.48</ele>
        <time>2013-12-20T12:19:23Z</time>
      </trkpt>
      <trkpt lat="48.7894" lon="1.60153">
        <ele>96.75</ele>
        <time>2013-12-20T12:19:47Z</time>
      </trkpt>
      <trkpt lat="48.78938" lon="1.60159">
        <ele>95.79</ele>
        <time>2013-12-20T12:19:53Z</time>
      </trkpt>
      <trkpt lat="48.7893" lon="1.60178">
        <ele>94.35</ele>
        <time>2013-12-20T12:20:12Z</time>
      </trkpt>
      <trkpt lat="48.78935" lon="1.60175">
        <ele>90.5</ele>
        <time>2013-12-20T12:20:30Z</time>
      </trkpt>
      <trkpt lat="48.78938" lon="1.60174">
        <ele>89.54</ele>
        <time>2013-12-20T12:20:51Z</time>
      </trkpt>
      <trkpt lat="48.78954" lon="1.60174">
        <ele>87.14</ele>
        <time>2013-12-20T12:21:13Z</time>
      </trkpt>
      <trkpt lat="48.7896" lon="1.60175">
        <ele>90.98</ele>
        <time>2013-12-20T12:21:33Z</time>
      </trkpt>
      <trkpt lat="48.78946" lon="1.60168">
        <ele>90.98</ele>
        <time>2013-12-20T12:24:41Z</time>
      </trkpt>
      <trkpt lat="48.78939" lon="1.60133">
        <ele>93.39</ele>
        <time>2013-12-20T12:24:54Z</time>
      </trkpt>
      <trkpt lat="48.78927" lon="1.60126">
        <ele>93.87</ele>
        <time>2013-12-20T12:25:14Z</time>
      </trkpt>
      <trkpt lat="48.78918" lon="1.60121">
        <ele>93.39</ele>
        <time>2013-12-20T12:25:40Z</time>
      </trkpt>
      <trkpt lat="48.7893" lon="1.60127">
        <ele>94.83</ele>
        <time>2013-12-20T12:26:07Z</time>
      </trkpt>
      <trkpt lat="48.78952" lon="1.60123">
        <ele>96.75</ele>
        <time>2013-12-20T12:26:29Z</time>
      </trkpt>
      <trkpt lat="48.78951" lon="1.60126">
        <ele>99.63</ele>
        <time>2013-12-20T12:26:56Z</time>
      </trkpt>
      <trkpt lat="48.7895" lon="1.60138">
        <ele>107.81</ele>
        <time>2013-12-20T12:27:18Z</time>
      </trkpt>
      <trkpt lat="48.78956" lon="1.60141">
        <ele>110.21</ele>
        <time>2013-12-20T12:27:38Z</time>
      </trkpt>
      <trkpt lat="48.78965" lon="1.60134">
        <ele>113.09</ele>
        <time>2013-12-20T12:27:59Z</time>
      </trkpt>
      <trkpt lat="48.78963" lon="1.60136">
        <ele>108.29</ele>
        <time>2013-12-20T12:28:25Z</time>
      </trkpt>
      <trkpt lat="48.78959" lon="1.60138">
        <ele>106.36</ele>
        <time>2013-12-20T12:28:49Z</time>
      </trkpt>
      <trkpt lat="48.7896" lon="1.6013">
        <ele>105.4</ele>
        <time>2013-12-20T12:29:12Z</time>
      </trkpt>
      <trkpt lat="48.78956" lon="1.60128">
        <ele>104.44</ele>
        <time>2013-12-20T12:29:29Z</time>
      </trkpt>
      <trkpt lat="48.78956" lon="1.60129">
        <ele>104.44</ele>
        <time>2013-12-20T12:29:55Z</time>
      </trkpt>
      <trkpt lat="48.78975" lon="1.60118">
        <ele>90.98</ele>
        <time>2013-12-20T12:32:12Z</time>
      </trkpt>
      <trkpt lat="48.78974" lon="1.60108">
        <ele>106.84</ele>
        <time>2013-12-20T12:32:35Z</time>
      </trkpt>
      <trkpt lat="48.78969" lon="1.60113">
        <ele>103.48</ele>
        <time>2013-12-20T12:32:51Z</time>
      </trkpt>
      <trkpt lat="48.78965" lon="1.60113">
        <ele>100.6</ele>
        <time>2013-12-20T12:33:03Z</time>
      </trkpt>
      <trkpt lat="48.78967" lon="1.60099">
        <ele>103</ele>
        <time>2013-12-20T12:33:15Z</time>
      </trkpt>
      <trkpt lat="48.78974" lon="1.60085">
        <ele>104.92</ele>
        <time>2013-12-20T12:33:29Z</time>
      </trkpt>
      <trkpt lat="48.78979" lon="1.60067">
        <ele>101.08</ele>
        <time>2013-12-20T12:33:41Z</time>
      </trkpt>
      <trkpt lat="48.7898" lon="1.60052">
        <ele>98.67</ele>
        <time>2013-12-20T12:33:55Z</time>
      </trkpt>
      <trkpt lat="48.78981" lon="1.60051">
        <ele>98.67</ele>
        <time>2013-12-20T12:33:56Z</time>
      </trkpt>
      <trkpt lat="48.78984" lon="1.60041">
        <ele>99.63</ele>
        <time>2013-12-20T12:34:09Z</time>
      </trkpt>
      <trkpt lat="48.78986" lon="1.60039">
        <ele>99.63</ele>
        <time>2013-12-20T12:34:15Z</time>
      </trkpt>
      <trkpt lat="48.78988" lon="1.60038">
        <ele>99.15</ele>
        <time>2013-12-20T12:34:19Z</time>
      </trkpt>
      <trkpt lat="48.78994" lon="1.60027">
        <ele>91.94</ele>
        <time>2013-12-20T12:34:31Z</time>
      </trkpt>
      <trkpt lat="48.79005" lon="1.60014">
        <ele>90.98</ele>
        <time>2013-12-20T12:34:43Z</time>
      </trkpt>
      <trkpt lat="48.7901" lon="1.60001">
        <ele>91.94</ele>
        <time>2013-12-20T12:34:54Z</time>
      </trkpt>
      <trkpt lat="48.79013" lon="1.59994">
        <ele>92.42</ele>
        <time>2013-12-20T12:35:00Z</time>
      </trkpt>
      <trkpt lat="48.79014" lon="1.59991">
        <ele>92.42</ele>
        <time>2013-12-20T12:35:02Z</time>
      </trkpt>
      <trkpt lat="48.79018" lon="1.5997">
        <ele>94.35</ele>
        <time>2013-12-20T12:35:14Z</time>
      </trkpt>
      <trkpt lat="48.79019" lon="1.59967">
        <ele>94.83</ele>
        <time>2013-12-20T12:35:16Z</time>
      </trkpt>
      <trkpt lat="48.79024" lon="1.59947">
        <ele>96.27</ele>
        <time>2013-12-20T12:35:30Z</time>
      </trkpt>
      <trkpt lat="48.79032" lon="1.59943">
        <ele>92.42</ele>
        <time>2013-12-20T12:35:39Z</time>
      </trkpt>
      <trkpt lat="48.79032" lon="1.59941">
        <ele>92.42</ele>
        <time>2013-12-20T12:35:40Z</time>
      </trkpt>
      <trkpt lat="48.79041" lon="1.59922">
        <ele>88.58</ele>
        <time>2013-12-20T12:35:54Z</time>
      </trkpt>
      <trkpt lat="48.79043" lon="1.5992">
        <ele>87.62</ele>
        <time>2013-12-20T12:35:56Z</time>
      </trkpt>
      <trkpt lat="48.79045" lon="1.59918">
        <ele>87.14</ele>
        <time>2013-12-20T12:35:58Z</time>
      </trkpt>
      <trkpt lat="48.79046" lon="1.59912">
        <ele>87.14</ele>
        <time>2013-12-20T12:36:07Z</time>
      </trkpt>
      <trkpt lat="48.79045" lon="1.59909">
        <ele>86.18</ele>
        <time>2013-12-20T12:36:20Z</time>
      </trkpt>
      <trkpt lat="48.79048" lon="1.59903">
        <ele>85.69</ele>
        <time>2013-12-20T12:36:27Z</time>
      </trkpt>
      <trkpt lat="48.79051" lon="1.59893">
        <ele>85.69</ele>
        <time>2013-12-20T12:36:33Z</time>
      </trkpt>
      <trkpt lat="48.79054" lon="1.59858">
        <ele>88.1</ele>
        <time>2013-12-20T12:36:52Z</time>
      </trkpt>
      <trkpt lat="48.79057" lon="1.59844">
        <ele>88.58</ele>
        <time>2013-12-20T12:37:01Z</time>
      </trkpt>
      <trkpt lat="48.79066" lon="1.59837">
        <ele>88.58</ele>
        <time>2013-12-20T12:37:15Z</time>
      </trkpt>
      <trkpt lat="48.79068" lon="1.5984">
        <ele>89.06</ele>
        <time>2013-12-20T12:37:18Z</time>
      </trkpt>
      <trkpt lat="48.79076" lon="1.59848">
        <ele>90.02</ele>
        <time>2013-12-20T12:37:24Z</time>
      </trkpt>
      <trkpt lat="48.79094" lon="1.59869">
        <ele>91.94</ele>
        <time>2013-12-20T12:37:40Z</time>
      </trkpt>
      <trkpt lat="48.79096" lon="1.59872">
        <ele>91.46</ele>
        <time>2013-12-20T12:37:43Z</time>
      </trkpt>
      <trkpt lat="48.79105" lon="1.59898">
        <ele>92.9</ele>
        <time>2013-12-20T12:37:58Z</time>
      </trkpt>
      <trkpt lat="48.79113" lon="1.59919">
        <ele>95.31</ele>
        <time>2013-12-20T12:38:12Z</time>
      </trkpt>
      <trkpt lat="48.79122" lon="1.59936">
        <ele>98.67</ele>
        <time>2013-12-20T12:38:26Z</time>
      </trkpt>
      <trkpt lat="48.79125" lon="1.59953">
        <ele>99.63</ele>
        <time>2013-12-20T12:38:39Z</time>
      </trkpt>
      <trkpt lat="48.79128" lon="1.59968">
        <ele>97.71</ele>
        <time>2013-12-20T12:38:54Z</time>
      </trkpt>
      <trkpt lat="48.79135" lon="1.5998">
        <ele>97.71</ele>
        <time>2013-12-20T12:39:05Z</time>
      </trkpt>
      <trkpt lat="48.79153" lon="1.59995">
        <ele>96.27</ele>
        <time>2013-12-20T12:39:21Z</time>
      </trkpt>
      <trkpt lat="48.79158" lon="1.6">
        <ele>98.19</ele>
        <time>2013-12-20T12:39:27Z</time>
      </trkpt>
      <trkpt lat="48.79167" lon="1.60005">
        <ele>90.02</ele>
        <time>2013-12-20T12:39:37Z</time>
      </trkpt>
      <trkpt lat="48.79178" lon="1.60014">
        <ele>87.62</ele>
        <time>2013-12-20T12:39:50Z</time>
      </trkpt>
      <trkpt lat="48.79187" lon="1.60023">
        <ele>87.14</ele>
        <time>2013-12-20T12:40:01Z</time>
      </trkpt>
      <trkpt lat="48.79203" lon="1.60027">
        <ele>84.25</ele>
        <time>2013-12-20T12:40:16Z</time>
      </trkpt>
      <trkpt lat="48.79216" lon="1.60047">
        <ele>87.62</ele>
        <time>2013-12-20T12:40:32Z</time>
      </trkpt>
      <trkpt lat="48.79231" lon="1.60052">
        <ele>87.14</ele>
        <time>2013-12-20T12:40:45Z</time>
      </trkpt>
      <trkpt lat="48.79241" lon="1.60058">
        <ele>89.54</ele>
        <time>2013-12-20T12:40:59Z</time>
      </trkpt>
      <trkpt lat="48.79242" lon="1.60057">
        <ele>90.02</ele>
        <time>2013-12-20T12:41:22Z</time>
      </trkpt>
      <trkpt lat="48.79243" lon="1.60057">
        <ele>90.02</ele>
        <time>2013-12-20T12:41:38Z</time>
      </trkpt>
      <trkpt lat="48.7925" lon="1.60056">
        <ele>90.02</ele>
        <time>2013-12-20T12:41:53Z</time>
      </trkpt>
      <trkpt lat="48.79258" lon="1.60059">
        <ele>89.54</ele>
        <time>2013-12-20T12:42:03Z</time>
      </trkpt>
      <trkpt lat="48.79269" lon="1.60047">
        <ele>89.54</ele>
        <time>2013-12-20T12:42:20Z</time>
      </trkpt>
      <trkpt lat="48.79275" lon="1.60044">
        <ele>87.62</ele>
        <time>2013-12-20T12:42:33Z</time>
      </trkpt>
      <trkpt lat="48.79281" lon="1.60061">
        <ele>86.18</ele>
        <time>2013-12-20T12:42:47Z</time>
      </trkpt>
      <trkpt lat="48.79297" lon="1.60072">
        <ele>85.21</ele>
        <time>2013-12-20T12:43:03Z</time>
      </trkpt>
      <trkpt lat="48.79303" lon="1.60075">
        <ele>85.69</ele>
        <time>2013-12-20T12:43:09Z</time>
      </trkpt>
      <trkpt lat="48.79309" lon="1.60073">
        <ele>85.69</ele>
        <time>2013-12-20T12:43:16Z</time>
      </trkpt>
      <trkpt lat="48.79309" lon="1.60076">
        <ele>85.69</ele>
        <time>2013-12-20T12:43:18Z</time>
      </trkpt>
      <trkpt lat="48.79309" lon="1.60087">
        <ele>86.66</ele>
        <time>2013-12-20T12:43:34Z</time>
      </trkpt>
      <trkpt lat="48.79308" lon="1.60086">
        <ele>86.66</ele>
        <time>2013-12-20T12:43:55Z</time>
      </trkpt>
      <trkpt lat="48.79307" lon="1.60086">
        <ele>87.14</ele>
        <time>2013-12-20T12:44:15Z</time>
      </trkpt>
      <trkpt lat="48.79319" lon="1.60092">
        <ele>86.66</ele>
        <time>2013-12-20T12:44:29Z</time>
      </trkpt>
      <trkpt lat="48.79336" lon="1.60101">
        <ele>89.06</ele>
        <time>2013-12-20T12:44:43Z</time>
      </trkpt>
      <trkpt lat="48.79354" lon="1.60109">
        <ele>92.42</ele>
        <time>2013-12-20T12:44:51Z</time>
      </trkpt>
      <trkpt lat="48.7936" lon="1.60114">
        <ele>92.42</ele>
        <time>2013-12-20T12:45:05Z</time>
      </trkpt>
      <trkpt lat="48.79374" lon="1.60125">
        <ele>90.5</ele>
        <time>2013-12-20T12:45:19Z</time>
      </trkpt>
      <trkpt lat="48.79382" lon="1.60117">
        <ele>89.06</ele>
        <time>2013-12-20T12:45:31Z</time>
      </trkpt>
      <trkpt lat="48.79386" lon="1.60114">
        <ele>85.69</ele>
        <time>2013-12-20T12:45:42Z</time>
      </trkpt>
      <trkpt lat="48.79389" lon="1.60116">
        <ele>84.73</ele>
        <time>2013-12-20T12:46:04Z</time>
      </trkpt>
      <trkpt lat="48.79389" lon="1.60117">
        <ele>83.77</ele>
        <time>2013-12-20T12:46:24Z</time>
      </trkpt>
      <trkpt lat="48.79396" lon="1.60121">
        <ele>84.25</ele>
        <time>2013-12-20T12:46:32Z</time>
      </trkpt>
      <trkpt lat="48.79398" lon="1.60123">
        <ele>84.25</ele>
        <time>2013-12-20T12:46:34Z</time>
      </trkpt>
      <trkpt lat="48.79417" lon="1.60132">
        <ele>85.21</ele>
        <time>2013-12-20T12:46:51Z</time>
      </trkpt>
      <trkpt lat="48.79418" lon="1.60133">
        <ele>85.21</ele>
        <time>2013-12-20T12:46:52Z</time>
      </trkpt>
      <trkpt lat="48.79432" lon="1.60135">
        <ele>85.69</ele>
        <time>2013-12-20T12:47:06Z</time>
      </trkpt>
      <trkpt lat="48.79442" lon="1.60131">
        <ele>87.62</ele>
        <time>2013-12-20T12:47:18Z</time>
      </trkpt>
      <trkpt lat="48.79446" lon="1.60134">
        <ele>87.62</ele>
        <time>2013-12-20T12:47:26Z</time>
      </trkpt>
      <trkpt lat="48.79454" lon="1.60155">
        <ele>88.1</ele>
        <time>2013-12-20T12:47:40Z</time>
      </trkpt>
      <trkpt lat="48.79461" lon="1.60163">
        <ele>89.54</ele>
        <time>2013-12-20T12:47:52Z</time>
      </trkpt>
      <trkpt lat="48.79468" lon="1.60167">
        <ele>89.06</ele>
        <time>2013-12-20T12:48:05Z</time>
      </trkpt>
      <trkpt lat="48.79468" lon="1.60173">
        <ele>88.58</ele>
        <time>2013-12-20T12:48:12Z</time>
      </trkpt>
      <trkpt lat="48.79462" lon="1.60177">
        <ele>88.58</ele>
        <time>2013-12-20T12:48:18Z</time>
      </trkpt>
      <trkpt lat="48.79459" lon="1.60181">
        <ele>88.1</ele>
        <time>2013-12-20T12:48:21Z</time>
      </trkpt>
      <trkpt lat="48.79457" lon="1.60188">
        <ele>87.62</ele>
        <time>2013-12-20T12:48:25Z</time>
      </trkpt>
      <trkpt lat="48.79458" lon="1.60186">
        <ele>86.18</ele>
        <time>2013-12-20T12:48:37Z</time>
      </trkpt>
      <trkpt lat="48.79462" lon="1.60178">
        <ele>83.77</ele>
        <time>2013-12-20T12:48:49Z</time>
      </trkpt>
      <trkpt lat="48.79463" lon="1.60176">
        <ele>83.29</ele>
        <time>2013-12-20T12:48:51Z</time>
      </trkpt>
      <trkpt lat="48.79468" lon="1.6018">
        <ele>81.37</ele>
        <time>2013-12-20T12:49:05Z</time>
      </trkpt>
      <trkpt lat="48.79488" lon="1.60191">
        <ele>80.89</ele>
        <time>2013-12-20T12:49:17Z</time>
      </trkpt>
      <trkpt lat="48.79491" lon="1.60191">
        <ele>81.37</ele>
        <time>2013-12-20T12:49:18Z</time>
      </trkpt>
      <trkpt lat="48.79503" lon="1.60198">
        <ele>81.85</ele>
        <time>2013-12-20T12:49:32Z</time>
      </trkpt>
      <trkpt lat="48.79504" lon="1.60197">
        <ele>81.85</ele>
        <time>2013-12-20T12:49:47Z</time>
      </trkpt>
      <trkpt lat="48.79513" lon="1.60204">
        <ele>83.29</ele>
        <time>2013-12-20T12:50:04Z</time>
      </trkpt>
      <trkpt lat="48.79535" lon="1.60216">
        <ele>89.06</ele>
        <time>2013-12-20T12:50:17Z</time>
      </trkpt>
      <trkpt lat="48.79552" lon="1.60226">
        <ele>93.87</ele>
        <time>2013-12-20T12:50:30Z</time>
      </trkpt>
      <trkpt lat="48.79562" lon="1.60237">
        <ele>96.27</ele>
        <time>2013-12-20T12:50:42Z</time>
      </trkpt>
      <trkpt lat="48.79573" lon="1.6025">
        <ele>94.35</ele>
        <time>2013-12-20T12:50:57Z</time>
      </trkpt>
      <trkpt lat="48.79585" lon="1.6026">
        <ele>93.87</ele>
        <time>2013-12-20T12:51:11Z</time>
      </trkpt>
      <trkpt lat="48.79592" lon="1.60261">
        <ele>94.35</ele>
        <time>2013-12-20T12:51:20Z</time>
      </trkpt>
      <trkpt lat="48.79599" lon="1.60261">
        <ele>94.83</ele>
        <time>2013-12-20T12:51:31Z</time>
      </trkpt>
      <trkpt lat="48.79602" lon="1.60237">
        <ele>94.35</ele>
        <time>2013-12-20T12:51:47Z</time>
      </trkpt>
      <trkpt lat="48.79602" lon="1.60221">
        <ele>94.35</ele>
        <time>2013-12-20T12:52:01Z</time>
      </trkpt>
      <trkpt lat="48.79603" lon="1.60219">
        <ele>95.31</ele>
        <time>2013-12-20T12:52:27Z</time>
      </trkpt>
      <trkpt lat="48.79611" lon="1.60237">
        <ele>96.27</ele>
        <time>2013-12-20T12:52:41Z</time>
      </trkpt>
      <trkpt lat="48.79612" lon="1.60238">
        <ele>95.31</ele>
        <time>2013-12-20T12:52:56Z</time>
      </trkpt>
      <trkpt lat="48.79613" lon="1.60237">
        <ele>94.35</ele>
        <time>2013-12-20T12:53:02Z</time>
      </trkpt>
      <trkpt lat="48.79616" lon="1.60234">
        <ele>93.87</ele>
        <time>2013-12-20T12:53:05Z</time>
      </trkpt>
      <trkpt lat="48.79625" lon="1.60226">
        <ele>92.42</ele>
        <time>2013-12-20T12:53:14Z</time>
      </trkpt>
      <trkpt lat="48.79634" lon="1.60219">
        <ele>93.39</ele>
        <time>2013-12-20T12:53:28Z</time>
      </trkpt>
      <trkpt lat="48.79634" lon="1.60227">
        <ele>93.87</ele>
        <time>2013-12-20T12:53:50Z</time>
      </trkpt>
      <trkpt lat="48.79632" lon="1.60235">
        <ele>94.35</ele>
        <time>2013-12-20T12:54:02Z</time>
      </trkpt>
      <trkpt lat="48.79632" lon="1.60235">
        <ele>94.83</ele>
        <time>2013-12-20T12:54:23Z</time>
      </trkpt>
      <trkpt lat="48.79632" lon="1.60235">
        <ele>94.83</ele>
        <time>2013-12-20T12:54:47Z</time>
      </trkpt>
      <trkpt lat="48.79633" lon="1.60235">
        <ele>95.31</ele>
        <time>2013-12-20T12:55:14Z</time>
      </trkpt>
      <trkpt lat="48.79632" lon="1.60235">
        <ele>95.31</ele>
        <time>2013-12-20T12:55:29Z</time>
      </trkpt>
      <trkpt lat="48.79629" lon="1.60227">
        <ele>95.31</ele>
        <time>2013-12-20T12:55:41Z</time>
      </trkpt>
      <trkpt lat="48.7962" lon="1.60226">
        <ele>95.31</ele>
        <time>2013-12-20T12:55:53Z</time>
      </trkpt>
      <trkpt lat="48.79609" lon="1.60234">
        <ele>96.27</ele>
        <time>2013-12-20T12:56:07Z</time>
      </trkpt>
      <trkpt lat="48.79606" lon="1.60248">
        <ele>96.27</ele>
        <time>2013-12-20T12:56:21Z</time>
      </trkpt>
      <trkpt lat="48.79604" lon="1.60262">
        <ele>97.23</ele>
        <time>2013-12-20T12:56:35Z</time>
      </trkpt>
      <trkpt lat="48.79604" lon="1.60275">
        <ele>98.19</ele>
        <time>2013-12-20T12:56:50Z</time>
      </trkpt>
      <trkpt lat="48.79604" lon="1.6028">
        <ele>96.27</ele>
        <time>2013-12-20T12:57:04Z</time>
      </trkpt>
      <trkpt lat="48.79608" lon="1.60269">
        <ele>94.35</ele>
        <time>2013-12-20T12:57:18Z</time>
      </trkpt>
      <trkpt lat="48.79614" lon="1.60257">
        <ele>95.31</ele>
        <time>2013-12-20T12:57:29Z</time>
      </trkpt>
      <trkpt lat="48.79614" lon="1.60246">
        <ele>96.27</ele>
        <time>2013-12-20T12:57:41Z</time>
      </trkpt>
      <trkpt lat="48.79615" lon="1.60236">
        <ele>97.23</ele>
        <time>2013-12-20T12:57:55Z</time>
      </trkpt>
      <trkpt lat="48.7961" lon="1.60239">
        <ele>96.27</ele>
        <time>2013-12-20T12:58:08Z</time>
      </trkpt>
      <trkpt lat="48.79607" lon="1.60251">
        <ele>95.79</ele>
        <time>2013-12-20T12:58:25Z</time>
      </trkpt>
      <trkpt lat="48.79606" lon="1.6026">
        <ele>96.27</ele>
        <time>2013-12-20T12:58:39Z</time>
      </trkpt>
      <trkpt lat="48.79605" lon="1.6027">
        <ele>96.75</ele>
        <time>2013-12-20T12:58:53Z</time>
      </trkpt>
      <trkpt lat="48.79606" lon="1.60274">
        <ele>97.23</ele>
        <time>2013-12-20T12:59:08Z</time>
      </trkpt>
      <trkpt lat="48.79612" lon="1.60269">
        <ele>95.79</ele>
        <time>2013-12-20T12:59:24Z</time>
      </trkpt>
      <trkpt lat="48.79608" lon="1.60268">
        <ele>93.87</ele>
        <time>2013-12-20T12:59:35Z</time>
      </trkpt>
      <trkpt lat="48.79606" lon="1.60275">
        <ele>93.39</ele>
        <time>2013-12-20T12:59:52Z</time>
      </trkpt>
      <trkpt lat="48.79605" lon="1.60286">
        <ele>92.9</ele>
        <time>2013-12-20T13:00:08Z</time>
      </trkpt>
      <trkpt lat="48.79604" lon="1.60294">
        <ele>93.39</ele>
        <time>2013-12-20T13:00:24Z</time>
      </trkpt>
      <trkpt lat="48.79604" lon="1.60313">
        <ele>95.31</ele>
        <time>2013-12-20T13:00:39Z</time>
      </trkpt>
      <trkpt lat="48.79602" lon="1.60326">
        <ele>97.23</ele>
        <time>2013-12-20T13:00:53Z</time>
      </trkpt>
      <trkpt lat="48.79603" lon="1.60338">
        <ele>97.71</ele>
        <time>2013-12-20T13:01:05Z</time>
      </trkpt>
      <trkpt lat="48.79602" lon="1.60346">
        <ele>98.67</ele>
        <time>2013-12-20T13:01:18Z</time>
      </trkpt>
      <trkpt lat="48.79603" lon="1.60352">
        <ele>99.63</ele>
        <time>2013-12-20T13:01:32Z</time>
      </trkpt>
      <trkpt lat="48.79603" lon="1.60355">
        <ele>101.08</ele>
        <time>2013-12-20T13:01:47Z</time>
      </trkpt>
      <trkpt lat="48.79602" lon="1.60359">
        <ele>102.52</ele>
        <time>2013-12-20T13:02:03Z</time>
      </trkpt>
      <trkpt lat="48.79604" lon="1.60368">
        <ele>103.48</ele>
        <time>2013-12-20T13:02:15Z</time>
      </trkpt>
      <trkpt lat="48.79603" lon="1.6036">
        <ele>102.52</ele>
        <time>2013-12-20T13:02:30Z</time>
      </trkpt>
      <trkpt lat="48.79607" lon="1.60354">
        <ele>100.6</ele>
        <time>2013-12-20T13:02:46Z</time>
      </trkpt>
      <trkpt lat="48.79607" lon="1.60353">
        <ele>100.11</ele>
        <time>2013-12-20T13:02:50Z</time>
      </trkpt>
      <trkpt lat="48.79607" lon="1.60351">
        <ele>99.15</ele>
        <time>2013-12-20T13:03:04Z</time>
      </trkpt>
      <trkpt lat="48.79607" lon="1.6035">
        <ele>99.63</ele>
        <time>2013-12-20T13:03:33Z</time>
      </trkpt>
      <trkpt lat="48.79608" lon="1.60349">
        <ele>99.63</ele>
        <time>2013-12-20T13:03:53Z</time>
      </trkpt>
      <trkpt lat="48.79609" lon="1.60348">
        <ele>100.6</ele>
        <time>2013-12-20T13:04:20Z</time>
      </trkpt>
      <trkpt lat="48.7961" lon="1.60347">
        <ele>101.08</ele>
        <time>2013-12-20T13:04:44Z</time>
      </trkpt>
      <trkpt lat="48.7961" lon="1.60346">
        <ele>100.6</ele>
        <time>2013-12-20T13:05:10Z</time>
      </trkpt>
      <trkpt lat="48.7961" lon="1.60346">
        <ele>101.08</ele>
        <time>2013-12-20T13:05:31Z</time>
      </trkpt>
      <trkpt lat="48.79608" lon="1.60365">
        <ele>100.11</ele>
        <time>2013-12-20T13:05:47Z</time>
      </trkpt>
      <trkpt lat="48.79609" lon="1.60361">
        <ele>99.15</ele>
        <time>2013-12-20T13:06:02Z</time>
      </trkpt>
      <trkpt lat="48.79608" lon="1.6036">
        <ele>99.15</ele>
        <time>2013-12-20T13:06:22Z</time>
      </trkpt>
      <trkpt lat="48.79607" lon="1.60357">
        <ele>96.75</ele>
        <time>2013-12-20T13:06:56Z</time>
      </trkpt>
      <trkpt lat="48.79605" lon="1.60378">
        <ele>96.75</ele>
        <time>2013-12-20T13:07:02Z</time>
      </trkpt>
      <trkpt lat="48.79604" lon="1.60406">
        <ele>97.71</ele>
        <time>2013-12-20T13:07:06Z</time>
      </trkpt>
    </trkseg>
  </trk>
</gpx>